• Join FlightAware (Why Join?)
  • Login
  • US Flag 
08:20AM EST


 

Airport Tracker/Info


-or-


 

Live Flight TrackerFlight Track Log ✈ N662US ✈ 14-Jul-2013 ✈ RJAA / NRT - KJFK

Flight Track Log - Related Links

Times and Time Zones

All times are in EDT time to prevent confusion due to time zone crossing. See the N662US flight status page for this flight to view local times or setup timezone preferences in your user account.

Time Position Orientation Groundspeed Altitude Reporting Facility
EDT Latitude Longitude Course Direction KTS MPH feet Rate Location/Type
02:38AM 35.7320 140.3980 150° Southeast 184 212 900  Level FlightAware
02:38AM 35.7120 140.4130 149° Southeast 191 220 1,600 1,380 Climbing FlightAware
02:39AM 35.6900 140.4290 149° Southeast 194 223 2,200 1,260 Climbing FlightAware
02:39AM 35.6680 140.4450 149° Southeast 198 228 2,800 1,140 Climbing FlightAware
02:40AM 35.6460 140.4610 149° Southeast 201 231 3,300 900 Climbing FlightAware
02:40AM 35.6320 140.4710 150° Southeast 213 245 3,500 480 Climbing FlightAware
02:41AM 35.6060 140.4900 149° Southeast 242 278 3,700 600 Climbing FlightAware
02:41AM 35.5760 140.5110 150° Southeast 267 307 4,100 900 Climbing FlightAware
02:42AM 35.5440 140.5330 151° Southeast 287 330 4,600 960 Climbing FlightAware
02:42AM 35.5250 140.5380 168° South 299 344 4,800 720 Climbing FlightAware
02:42AM 35.5030 140.5320 193° South 303 349 5,100 1,560 Climbing FlightAware
02:43AM 35.4700 140.5020 217° Southwest 309 356 6,000 2,280 Climbing FlightAware
02:43AM 35.4630 140.4750 252° West 310 357 6,500 2,040 Climbing FlightAware
02:43AM 35.4730 140.4310 286° West 316 364 7,500 2,100 Climbing FlightAware
02:43AM 35.4840 140.4180 316° Northwest 319 367 7,800 2,400 Climbing FlightAware
02:44AM 35.5140 140.3920 325° Northwest 311 358 8,900 2,460 Climbing FlightAware
02:45AM 35.5640 140.3530 328° Northwest 320 368 10,500 1,740 Climbing FlightAware
02:45AM 35.6250 140.3100 330° Northwest 353 406 11,400 1,020 Climbing FlightAware
02:46AM 35.6850 140.2690 331° Northwest 376 433 12,000 1,020 Climbing FlightAware
02:47AM 35.7580 140.2180 330° Northwest 409 471 12,900 1,500 Climbing FlightAware
02:47AM 35.8240 140.1720 331° Northwest 406 467 14,100 1,560 Climbing FlightAware
02:48AM 35.8920 140.1250 331° Northwest 403 464 15,000 900 Climbing FlightAware
02:49AM 35.9640 140.0750 331° Northwest 410 472 15,400 1,020 Climbing FlightAware
02:49AM 36.0310 140.0280 330° Northwest 412 474 16,500 1,440 Climbing FlightAware
02:50AM 36.1090 139.9740 331° Northwest 426 490 17,500 1,200 Climbing FlightAware
02:51AM 36.1790 139.9240 330° Northwest 448 516 18,200 1,200 Climbing FlightAware
02:52AM 36.2520 139.8730 331° Northwest 461 531 19,100 1,200 Climbing FlightAware
02:52AM 36.3850 139.8570 354° North 487 560 20,200 1,200 Climbing FlightAware
02:53AM 36.4770 139.8640 North 496 571 21,100 1,200 Climbing FlightAware
02:54AM 36.5770 139.8860 10° North 506 582 21,900 1,140 Climbing FlightAware
02:55AM 36.6750 139.9110 12° North 511 588 22,800 1,080 Climbing FlightAware
02:55AM 36.7680 139.9350 12° North 517 595 23,400 840 Climbing FlightAware
02:56AM 36.8490 139.9560 12° North 522 601 23,900 960 Climbing FlightAware
02:56AM 36.9370 139.9780 11° North 526 605 24,600 900 Climbing FlightAware
02:57AM 37.0510 140.0070 11° North 534 615 25,200 840 Climbing FlightAware
02:58AM 37.1400 140.0300 12° North 537 618 25,800 840 Climbing FlightAware
02:59AM 37.2360 140.0550 12° North 538 619 26,300 780 Climbing FlightAware
02:59AM 37.3410 140.0820 12° North 541 623 26,900 960 Climbing FlightAware
03:00AM 37.4470 140.1100 12° North 534 615 27,700 1,020 Climbing FlightAware
03:01AM 37.5460 140.1350 11° North 533 613 28,400 960 Climbing FlightAware
03:01AM 37.6410 140.1620 13° North 532 612 29,000 420 Climbing FlightAware
03:02AM 37.7460 140.1930 13° North 538 619 29,000  Level FlightAware
03:03AM 37.8710 140.2290 13° North 539 620 29,000  Level FlightAware
03:03AM 37.9550 140.2530 13° North 538 619 29,000  Level FlightAware
03:04AM 38.0730 140.2860 12° North 536 617 29,000  Level FlightAware
03:05AM 38.1620 140.3120 13° North 537 618 29,000  Level FlightAware
03:06AM 38.2600 140.3400 13° North 540 621 29,000  Level FlightAware
03:06AM 38.3570 140.3680 13° North 543 625 29,000  Level FlightAware
03:07AM 38.4680 140.4000 13° North 544 626 29,000  Level FlightAware
03:08AM 38.5670 140.4290 13° North 542 624 29,000  Level FlightAware
03:09AM 38.6960 140.4670 13° North 539 620 29,000  Level FlightAware
03:09AM 38.8070 140.4990 13° North 539 620 29,000  Level FlightAware
03:10AM 38.8940 140.5250 13° North 539 620 29,000  Level FlightAware
03:10AM 38.9750 140.5480 12° North 541 623 29,000  Level FlightAware
03:12AM 39.1370 140.5990 14° North 533 613 29,000  Level FlightAware
03:12AM 39.2090 140.6280 17° North 546 628 29,000  Level FlightAware
03:13AM 39.3120 140.6920 26° Northeast 557 641 29,000  Level FlightAware
03:13AM 39.4010 140.7640 32° Northeast 551 634 29,000  Level FlightAware
03:14AM 39.4880 140.8340 32° Northeast 550 633 29,000  Level FlightAware
03:15AM 39.5870 140.9160 33° Northeast 557 641 29,000  Level FlightAware
03:16AM 39.6730 140.9870 32° Northeast 550 633 29,000  Level FlightAware
03:16AM 39.7710 141.0660 32° Northeast 549 632 29,000  Level FlightAware
03:17AM 39.8600 141.1360 31° Northeast 548 631 29,000  Level FlightAware
03:18AM 39.9480 141.2030 30° Northeast 549 632 29,000  Level FlightAware
03:18AM 40.0470 141.2830 32° Northeast 547 629 29,000  Level FlightAware
03:19AM 40.1340 141.3510 31° Northeast 546 628 29,000  Level FlightAware
03:20AM 40.2340 141.4310 31° Northeast 545 627 29,000  Level FlightAware
03:20AM 40.3170 141.4970 31° Northeast 545 627 29,000  Level FlightAware
03:21AM 40.3980 141.5620 31° Northeast 545 627 29,000  Level FlightAware
03:22AM 40.4890 141.6350 31° Northeast 545 627 29,000  Level FlightAware
03:22AM 40.5880 141.7140 31° Northeast 545 627 29,000  Level FlightAware
03:23AM 40.6740 141.7850 32° Northeast 547 629 29,000  Level FlightAware
03:24AM 40.7670 141.8590 31° Northeast 548 631 29,000  Level FlightAware
03:24AM 40.8500 141.9270 32° Northeast 549 632 29,000  Level FlightAware
03:25AM 40.9490 142.0070 31° Northeast 551 634 29,000  Level FlightAware
03:26AM 41.0440 142.0850 32° Northeast 551 634 29,000  Level FlightAware
03:27AM 41.1360 142.1600 32° Northeast 552 635 29,000  Level FlightAware
03:27AM 41.2240 142.2340 32° Northeast 550 633 29,000  Level FlightAware
03:28AM 41.3120 142.3070 32° Northeast 549 632 29,000  Level FlightAware
03:29AM 41.4120 142.3900 32° Northeast 551 634 29,000  Level FlightAware
03:29AM 41.5090 142.4710 32° Northeast 554 638 29,000  Level FlightAware
03:30AM 41.6000 142.5460 32° Northeast 557 641 29,000  Level FlightAware
03:31AM 41.6900 142.6210 32° Northeast 567 652 29,000  Level FlightAware
03:32AM 41.7860 142.7010 32° Northeast 567 652 29,000  Level FlightAware
03:32AM 41.8800 142.7820 33° Northeast 567 652 29,000  Level FlightAware
03:33AM 41.9560 142.8450 32° Northeast 566 651 29,000  Level FlightAware
03:34AM 42.0560 142.9300 32° Northeast 555 639 29,000  Level FlightAware
03:34AM 42.1340 142.9970 32° Northeast 553 636 29,000  Level FlightAware
03:35AM 42.2230 143.0740 33° Northeast 553 636 29,000  Level FlightAware
03:36AM 42.3100 143.1470 32° Northeast 554 638 29,000 300 Level FlightAware
03:36AM 42.4070 143.2320 33° Northeast 555 639 29,500 780 Climbing FlightAware
03:37AM 42.4840 143.2980 32° Northeast 554 638 30,100 900 Climbing FlightAware
03:38AM 42.5850 143.3840 32° Northeast 552 635 30,800 600 Climbing FlightAware
03:38AM 42.6720 143.4600 33° Northeast 557 641 31,000 120 Climbing FlightAware
03:39AM 42.7660 143.5430 33° Northeast 551 634 31,000  Level FlightAware
03:40AM 42.8430 143.6110 33° Northeast 543 625 31,000  Level FlightAware
03:40AM 42.9320 143.6890 33° Northeast 541 623 31,000  Level FlightAware
03:41AM 43.0130 143.7610 33° Northeast 541 623 31,000  Level FlightAware
03:42AM 43.1020 143.8380 32° Northeast 537 618 31,000  Level FlightAware
03:42AM 43.1760 143.9050 33° Northeast 539 620 31,000  Level FlightAware
03:43AM 43.2680 143.9860 33° Northeast 534 615 31,000  Level FlightAware
03:44AM 43.3500 144.0600 33° Northeast 522 601 31,000  Level FlightAware
03:45AM 43.4670 144.1640 33° Northeast 516 594 31,000  Level FlightAware
03:45AM 43.5580 144.2460 33° Northeast 521 600 31,000  Level FlightAware
03:46AM 43.6390 144.3190 33° Northeast 521 600 31,000  Level FlightAware
03:47AM 43.7190 144.3920 33° Northeast 522 601 31,000  Level FlightAware
03:47AM 43.7890 144.4570 34° Northeast 522 601 31,000  Level FlightAware
03:48AM 43.8720 144.5320 33° Northeast 523 602 31,000  Level FlightAware
03:49AM 43.9610 144.6140 34° Northeast 520 598 31,000  Level FlightAware
03:49AM 44.0320 144.6780 33° Northeast 518 596 31,000  Level FlightAware
03:50AM 44.1220 144.7610 33° Northeast 518 596 31,000  Level FlightAware
03:51AM 44.1910 144.8260 34° Northeast 519 597 31,000  Level FlightAware
03:51AM 44.2920 144.9200 34° Northeast 520 598 31,000  Level FlightAware
03:52AM 44.3630 144.9860 34° Northeast 522 601 31,000  Level FlightAware
03:53AM 44.4540 145.0700 33° Northeast 524 603 31,000  Level FlightAware
03:53AM 44.5350 145.1460 34° Northeast 526 605 31,000  Level FlightAware
03:54AM 44.6160 145.2230 34° Northeast 522 601 31,000  Level FlightAware
03:55AM 44.6910 145.3160 41° Northeast 536 617 31,000  Level FlightAware
03:56AM 44.7690 145.4260 45° Northeast 538 619 31,000  Level FlightAware
03:56AM 44.8440 145.5370 46° Northeast 539 620 31,000  Level FlightAware
03:57AM 44.9160 145.6410 46° Northeast 540 621 31,000  Level FlightAware
03:58AM 44.9850 145.7430 46° Northeast 541 623 31,000  Level FlightAware
03:58AM 45.0630 145.8590 46° Northeast 538 619 31,000  Level FlightAware
03:59AM 45.1410 145.9750 46° Northeast 539 620 31,000  Level FlightAware
04:00AM 45.2020 146.0650 46° Northeast 539 620 31,000  Level FlightAware
04:00AM 45.2800 146.1820 47° Northeast 544 626 31,000  Level FlightAware
04:01AM 45.3730 146.3220 47° Northeast 545 627 31,000  Level FlightAware
04:02AM 45.4400 146.4240 47° Northeast 545 627 31,000  Level FlightAware
04:03AM 45.5100 146.5290 46° Northeast 546 628 31,000  Level FlightAware
04:03AM 45.5750 146.6290 47° Northeast 546 628 31,000  Level FlightAware
04:04AM 45.6810 146.7920 47° Northeast 546 628 31,000  Level FlightAware
04:05AM 45.7500 146.8980 47° Northeast 547 629 31,000  Level FlightAware
04:06AM 45.8260 147.0150 47° Northeast 549 632 31,000  Level FlightAware
04:07AM 45.9050 147.1350 47° Northeast 548 631 31,000  Level FlightAware
04:07AM 45.9650 147.2290 47° Northeast 549 632 31,000  Level FlightAware
04:08AM 46.0180 147.3110 47° Northeast 549 632 31,000  Level FlightAware
04:09AM 46.0890 147.4200 47° Northeast 549 632 31,000  Level FlightAware
04:09AM 46.1420 147.5020 47° Northeast 549 632 31,000  Level FlightAware
04:10AM 46.2120 147.6110 47° Northeast 549 632 31,000  Level FlightAware
04:11AM 46.2680 147.6980 47° Northeast 549 632 31,000  Level FlightAware
04:11AM 46.3270 147.7900 47° Northeast 549 632 31,000  Level FlightAware
04:12AM 46.3980 147.9000 47° Northeast 549 632 31,000  Level FlightAware
04:13AM 46.4520 147.9840 47° Northeast 549 632 31,000  Level FlightAware
04:14AM 46.5230 148.0940 47° Northeast 549 632 31,000  Level FlightAware
04:14AM 46.5760 148.1770 47° Northeast 549 632 31,000  Level FlightAware
04:15AM 46.6310 148.2620 47° Northeast 549 632 31,000  Level FlightAware
04:16AM 46.7010 148.3730 47° Northeast 549 632 31,000  Level FlightAware
04:16AM 46.7570 148.4600 47° Northeast 549 632 31,000  Level FlightAware
04:19AM 47.0355 148.6949 30° Northeast  Level FlightAware Approximate
04:20AM 47.1539 148.7956 30° Northeast  Level FlightAware Approximate
04:21AM 47.2722 148.8967 30° Northeast  Level FlightAware Approximate
04:22AM 47.3904 148.9983 30° Northeast  Level FlightAware Approximate
04:23AM 47.5086 149.1004 30° Northeast  Level FlightAware Approximate
04:24AM 47.6266 149.2029 30° Northeast  Level FlightAware Approximate
04:25AM 47.7445 149.3059 30° Northeast  Level FlightAware Approximate
04:26AM 47.8624 149.4093 30° Northeast  Level FlightAware Approximate
04:27AM 47.9801 149.5133 31° Northeast  Level FlightAware Approximate
04:28AM 48.0976 149.6175 31° Northeast  Level FlightAware Approximate
04:29AM 48.2150 149.7222 31° Northeast  Level FlightAware Approximate
04:30AM 48.3323 149.8274 31° Northeast  Level FlightAware Approximate
04:31AM 48.4495 149.9331 31° Northeast  Level FlightAware Approximate
04:32AM 48.5666 150.0393 31° Northeast  Level FlightAware Approximate
04:33AM 48.6837 150.1460 31° Northeast  Level FlightAware Approximate
04:34AM 48.8006 150.2531 31° Northeast  Level FlightAware Approximate
04:35AM 48.9174 150.3608 31° Northeast  Level FlightAware Approximate
04:36AM 49.0341 150.4690 31° Northeast  Level FlightAware Approximate
04:37AM 49.1507 150.5777 31° Northeast  Level FlightAware Approximate
04:38AM 49.2672 150.6869 31° Northeast  Level FlightAware Approximate
04:39AM 49.3836 150.7966 32° Northeast  Level FlightAware Approximate
04:40AM 49.4999 150.9068 32° Northeast  Level FlightAware Approximate
04:41AM 49.6161 151.0176 32° Northeast  Level FlightAware Approximate
04:42AM 49.7322 151.1288 32° Northeast  Level FlightAware Approximate
04:43AM 49.8482 151.2407 32° Northeast  Level FlightAware Approximate
04:44AM 49.9640 151.3530 32° Northeast  Level FlightAware Approximate
04:45AM 50.0798 151.4659 32° Northeast  Level FlightAware Approximate
04:46AM 50.1954 151.5794 32° Northeast  Level FlightAware Approximate
04:47AM 50.3100 151.6966 34° Northeast  Level FlightAware Approximate
04:48AM 50.4236 151.8155 34° Northeast  Level FlightAware Approximate
04:49AM 50.5371 151.9351 34° Northeast  Level FlightAware Approximate
04:50AM 50.6504 152.0552 34° Northeast  Level FlightAware Approximate
04:51AM 50.7636 152.1759 34° Northeast  Level FlightAware Approximate
04:52AM 50.8768 152.2972 34° Northeast  Level FlightAware Approximate
04:53AM 50.9897 152.4191 34° Northeast  Level FlightAware Approximate
04:54AM 51.1026 152.5415 34° Northeast  Level FlightAware Approximate
04:55AM 51.2153 152.6646 34° Northeast  Level FlightAware Approximate
04:56AM 51.3279 152.7883 34° Northeast  Level FlightAware Approximate
04:57AM 51.4403 152.9125 35° Northeast  Level FlightAware Approximate
04:58AM 51.5527 153.0374 35° Northeast  Level FlightAware Approximate
04:59AM 51.6649 153.1629 35° Northeast  Level FlightAware Approximate
05:00AM 51.7769 153.2891 35° Northeast  Level FlightAware Approximate
05:01AM 51.8889 153.4158 35° Northeast  Level FlightAware Approximate
05:02AM 52.0006 153.5432 35° Northeast  Level FlightAware Approximate
05:03AM 52.1123 153.6712 35° Northeast  Level FlightAware Approximate
05:04AM 52.2238 153.7999 35° Northeast  Level FlightAware Approximate
05:05AM 52.3352 153.9292 35° Northeast  Level FlightAware Approximate
05:06AM 52.4464 154.0592 35° Northeast  Level FlightAware Approximate
05:07AM 52.5575 154.1898 36° Northeast  Level FlightAware Approximate
05:08AM 52.6684 154.3211 36° Northeast  Level FlightAware Approximate
05:09AM 52.7792 154.4531 36° Northeast  Level FlightAware Approximate
05:10AM 52.8899 154.5857 36° Northeast  Level FlightAware Approximate
05:11AM 53.0004 154.7190 36° Northeast  Level FlightAware Approximate
05:12AM 53.1107 154.8530 36° Northeast  Level FlightAware Approximate
05:13AM 53.2209 154.9877 36° Northeast  Level FlightAware Approximate
05:14AM 53.3310 155.1231 36° Northeast  Level FlightAware Approximate
05:15AM 53.4408 155.2592 36° Northeast  Level FlightAware Approximate
05:16AM 53.5588 155.4028 36° Northeast  Level FlightAware Approximate
05:17AM 53.6767 155.5472 36° Northeast  Level FlightAware Approximate
05:18AM 53.7943 155.6924 36° Northeast  Level FlightAware Approximate
05:19AM 53.9118 155.8384 36° Northeast  Level FlightAware Approximate
05:20AM 54.0291 155.9853 36° Northeast  Level FlightAware Approximate
05:21AM 54.1461 156.1332 37° Northeast  Level FlightAware Approximate
05:22AM 54.2621 156.2839 37° Northeast  Level FlightAware Approximate
05:23AM 54.3779 156.4355 37° Northeast  Level FlightAware Approximate
05:24AM 54.4935 156.5879 37° Northeast  Level FlightAware Approximate
05:25AM 54.6089 156.7411 38° Northeast  Level FlightAware Approximate
05:26AM 54.7241 156.8953 38° Northeast  Level FlightAware Approximate
05:27AM 54.8391 157.0503 38° Northeast  Level FlightAware Approximate
05:28AM 54.9540 157.2062 38° Northeast  Level FlightAware Approximate
05:29AM 55.0686 157.3630 38° Northeast  Level FlightAware Approximate
05:30AM 55.1830 157.5207 38° Northeast  Level FlightAware Approximate
05:31AM 55.2972 157.6793 38° Northeast  Level FlightAware Approximate
05:32AM 55.4112 157.8388 38° Northeast  Level FlightAware Approximate
05:33AM 55.5250 157.9992 39° Northeast  Level FlightAware Approximate
05:34AM 55.6334 158.1531 39° Northeast  Level FlightAware Approximate
05:35AM 55.7415 158.3078 39° Northeast  Level FlightAware Approximate
05:36AM 55.8495 158.4634 39° Northeast  Level FlightAware Approximate
05:37AM 55.9572 158.6199 39° Northeast  Level FlightAware Approximate
05:38AM 56.0648 158.7772 39° Northeast  Level FlightAware Approximate
05:39AM 56.1721 158.9354 39° Northeast  Level FlightAware Approximate
05:40AM 56.2793 159.0945 39° Northeast  Level FlightAware Approximate
05:41AM 56.3862 159.2545 40° Northeast  Level FlightAware Approximate
05:42AM 56.4929 159.4154 40° Northeast  Level FlightAware Approximate
05:43AM 56.5995 159.5772 40° Northeast  Level FlightAware Approximate
05:44AM 56.7058 159.7399 40° Northeast  Level FlightAware Approximate
05:45AM 56.8119 159.9036 40° Northeast  Level FlightAware Approximate
05:46AM 56.9178 160.0681 40° Northeast  Level FlightAware Approximate
05:47AM 57.0234 160.2336 40° Northeast  Level FlightAware Approximate
05:48AM 57.1289 160.4001 41° Northeast  Level FlightAware Approximate
05:49AM 57.2341 160.5675 41° Northeast  Level FlightAware Approximate
05:50AM 57.3391 160.7358 41° Northeast  Level FlightAware Approximate
05:51AM 57.4439 160.9051 41° Northeast  Level FlightAware Approximate
05:52AM 57.5485 161.0754 41° Northeast  Level FlightAware Approximate
05:53AM 57.6528 161.2467 41° Northeast  Level FlightAware Approximate
05:54AM 57.7569 161.4189 41° Northeast  Level FlightAware Approximate
05:55AM 57.8607 161.5921 42° Northeast  Level FlightAware Approximate
05:56AM 57.9643 161.7664 42° Northeast  Level FlightAware Approximate
05:57AM 58.0677 161.9417 42° Northeast  Level FlightAware Approximate
05:58AM 58.1708 162.1179 42° Northeast  Level FlightAware Approximate
05:59AM 58.2737 162.2952 42° Northeast  Level FlightAware Approximate
06:00AM 58.3764 162.4736 42° Northeast  Level FlightAware Approximate
06:01AM 58.4787 162.6529 42° Northeast  Level FlightAware Approximate
06:02AM 58.5809 162.8333 43° Northeast  Level FlightAware Approximate
06:03AM 58.6828 163.0148 43° Northeast  Level FlightAware Approximate
06:04AM 58.7844 163.1973 43° Northeast  Level FlightAware Approximate
06:05AM 58.8858 163.3809 43° Northeast  Level FlightAware Approximate
06:06AM 58.9869 163.5656 43° Northeast  Level FlightAware Approximate
06:07AM 59.0877 163.7514 43° Northeast  Level FlightAware Approximate
06:08AM 59.1883 163.9382 44° Northeast  Level FlightAware Approximate
06:09AM 59.2886 164.1262 44° Northeast  Level FlightAware Approximate
06:10AM 59.3887 164.3153 44° Northeast  Level FlightAware Approximate
06:11AM 59.4884 164.5054 44° Northeast  Level FlightAware Approximate
06:12AM 59.5879 164.6968 44° Northeast  Level FlightAware Approximate
06:13AM 59.6871 164.8892 44° Northeast  Level FlightAware Approximate
06:14AM 59.7860 165.0828 45° Northeast  Level FlightAware Approximate
06:15AM 59.8847 165.2775 45° Northeast  Level FlightAware Approximate
06:15AM 56.4333 172.8167 60° Northeast 538 619 31,000  Level Anchorage Center
06:16AM 59.9830 165.4734 45° Northeast  Level FlightAware Approximate
06:17AM 60.0810 165.6705 45° Northeast  Level FlightAware Approximate
06:18AM 60.1788 165.8687 45° Northeast  Level FlightAware Approximate
06:19AM 60.2763 166.0682 45° Northeast  Level FlightAware Approximate
06:20AM 60.3734 166.2688 46° Northeast  Level FlightAware Approximate
06:21AM 60.4703 166.4706 46° Northeast  Level FlightAware Approximate
06:22AM 57.1560 175.1938 62° Northeast 538 619 31,000  Level FlightAware Transoceanic
06:23AM 57.2257 175.4365 62° Northeast 538 619 31,000  Level FlightAware Transoceanic
06:24AM 57.2950 175.6802 62° Northeast 538 619 31,000  Level FlightAware Transoceanic
06:25AM 57.3638 175.9247 63° Northeast 538 619 31,000  Level FlightAware Transoceanic
06:26AM 57.4322 176.1703 63° Northeast 538 619 31,000  Level FlightAware Transoceanic
06:27AM 57.5000 176.4167 58° Northeast 538 619 31,000  Level FlightAware Transoceanic
06:28AM 57.5830 176.6640 58° Northeast 538 619 31,000  Level FlightAware Transoceanic
06:29AM 57.6655 176.9125 58° Northeast 538 619 31,000  Level FlightAware Transoceanic
06:30AM 57.7475 177.1621 59° Northeast 538 619 31,000  Level FlightAware Transoceanic
06:31AM 57.8290 177.4128 59° Northeast 538 619 31,000  Level FlightAware Transoceanic
06:32AM 57.9100 177.6646 59° Northeast 538 619 31,000  Level FlightAware Transoceanic
06:33AM 57.9906 177.9176 59° Northeast 538 619 31,000  Level FlightAware Transoceanic
06:34AM 58.0706 178.1718 59° Northeast 538 619 31,000  Level FlightAware Transoceanic
06:35AM 58.1501 178.4270 60° Northeast 538 619 31,000  Level FlightAware Transoceanic
06:36AM 58.2291 178.6834 60° Northeast 538 619 31,000  Level FlightAware Transoceanic
06:37AM 58.3076 178.9410 60° Northeast 538 619 31,000  Level FlightAware Transoceanic
06:38AM 58.3856 179.1997 60° Northeast 538 619 31,000  Level FlightAware Transoceanic
06:39AM 58.4630 179.4595 60° Northeast 538 619 31,000  Level FlightAware Transoceanic
06:40AM 58.5399 179.7205 61° Northeast 538 619 31,000  Level FlightAware Transoceanic
06:41AM 58.6163 179.9826 61° Northeast 538 619 31,000  Level FlightAware Transoceanic
06:42AM 58.6921 -179.7542 61° Northeast 538 619 31,000  Level FlightAware Transoceanic
06:43AM 58.7674 -179.4897 61° Northeast 538 619 31,000  Level FlightAware Transoceanic
06:44AM 58.8422 -179.2242 62° Northeast 538 619 31,000  Level FlightAware Transoceanic
06:45AM 58.9164 -178.9575 62° Northeast 538 619 31,000  Level FlightAware Transoceanic
06:46AM 58.9901 -178.6897 62° Northeast 538 619 31,000  Level FlightAware Transoceanic
06:47AM 59.0632 -178.4207 62° Northeast 538 619 31,000  Level FlightAware Transoceanic
06:48AM 59.1357 -178.1506 63° Northeast 538 619 31,000  Level FlightAware Transoceanic
06:49AM 59.2077 -177.8793 63° Northeast 538 619 31,000  Level FlightAware Transoceanic
06:50AM 59.2791 -177.6069 63° Northeast 538 619 31,000 180 Level FlightAware Transoceanic
06:51AM 59.3557 -177.3797 56° Northeast  Level Estimated
06:52AM 59.4319 -177.1515 57° Northeast  Level Estimated
06:53AM 59.5077 -176.9223 57° Northeast  Level Estimated
06:54AM 59.5831 -176.6920 57° Northeast  Level Estimated
06:55AM 59.6581 -176.4608 57° Northeast  Level Estimated
06:56AM 59.7327 -176.2284 57° Northeast  Level Estimated
06:57AM 59.8068 -175.9951 58° Northeast  Level Estimated
06:58AM 59.8806 -175.7607 58° Northeast  Level Estimated
06:59AM 59.9539 -175.5253 58° Northeast  Level Estimated
06:59AM 59.9000 -175.1167 59° Northeast 550 633 33,000  Level Anchorage Center
07:00AM 60.0268 -175.2888 58° Northeast  Level Estimated
07:01AM 60.0993 -175.0513 58° Northeast  Level Estimated
07:01AM 60.0333 -174.5500 65° Northeast 570 656 33,000  Level Anchorage Center
07:02AM 60.1714 -174.8127 59° Northeast  Level Estimated
07:02AM 60.1000 -174.2667 65° Northeast 550 633 33,000  Level Anchorage Center
07:03AM 60.2430 -174.5731 59° Northeast  Level Estimated
07:03AM 60.1667 -173.9667 66° East 560 644 33,000  Level Anchorage Center
07:04AM 60.3142 -174.3325 59° Northeast  Level Estimated
07:04AM 60.2333 -173.7000 63° Northeast 540 621 33,000  Level Anchorage Center
07:05AM 60.3000 -173.4000 66° East 560 644 33,000  Level Anchorage Center
07:06AM 60.3500 -173.1333 69° East 540 621 33,000  Level Anchorage Center
07:07AM 60.4167 -172.8333 66° East 560 644 33,000  Level Anchorage Center
07:08AM 60.4833 -172.5167 67° East 570 656 33,000  Level Anchorage Center
07:09AM 60.5333 -172.2500 69° East 560 644 33,000  Level Anchorage Center
07:10AM 60.6000 -171.9500 66° East 550 633 33,000  Level Anchorage Center
07:11AM 60.6500 -171.6667 70° East 550 633 33,000  Level Anchorage Center
07:12AM 60.7167 -171.3833 64° Northeast 550 633 33,000  Level Anchorage Center
07:13AM 60.7667 -171.1000 70° East 540 621 33,000  Level Anchorage Center
07:14AM 60.8333 -170.8000 65° Northeast 540 621 33,000  Level Anchorage Center
07:15AM 60.8833 -170.5167 70° East 540 621 33,000  Level Anchorage Center
07:16AM 60.9333 -170.2333 70° East 530 610 33,000  Level Anchorage Center
07:17AM 61.0000 -169.9333 65° Northeast 540 621 33,000  Level Anchorage Center
07:18AM 61.0500 -169.6500 70° East 540 621 33,000  Level Anchorage Center
07:19AM 61.1000 -169.3667 70° East 530 610 33,000  Level Anchorage Center
07:20AM 61.1500 -169.0833 70° East 520 598 33,000  Level Anchorage Center
07:21AM 61.2000 -168.8000 70° East 510 587 33,000  Level Anchorage Center
07:22AM 61.2500 -168.5167 70° East 520 598 33,000  Level Anchorage Center
07:23AM 61.3000 -168.2333 70° East 530 610 33,000  Level Anchorage Center
07:24AM 61.3500 -167.9500 70° East 510 587 33,000 180 Level Anchorage Center
07:25AM 61.4000 -167.6667 70° East 510 587 33,400 660 Climbing Anchorage Center
07:26AM 61.4500 -167.3833 70° East 510 587 34,400 780 Climbing Anchorage Center
07:27AM 61.4833 -167.1000 76° East 500 575 35,000 300 Climbing Anchorage Center
07:28AM 61.5333 -166.8167 70° East 510 587 35,000  Level Anchorage Center
07:29AM 61.5833 -166.5333 70° East 500 575 35,000  Level Anchorage Center
07:30AM 61.6167 -166.2500 76° East 500 575 35,000  Level Anchorage Center
07:31AM 61.6500 -166.0167 73° East 500 575 35,000  Level Anchorage Center
07:32AM 61.7000 -165.7167 71° East 530 610 35,000  Level Anchorage Center
07:33AM 61.7500 -165.3833 72° East 530 610 35,000  Level Anchorage Center
07:34AM 61.8000 -165.0833 70° East 510 587 35,000  Level Anchorage Center
07:35AM 61.8500 -164.8000 69° East 520 598 35,000  Level Anchorage Center
07:36AM 61.8833 -164.5000 77° East 520 598 35,000  Level Anchorage Center
07:37AM 61.9333 -164.2000 70° East 520 598 35,000  Level Anchorage Center
07:38AM 61.9667 -163.9000 77° East 520 598 35,000  Level Anchorage Center
07:39AM 62.0000 -163.6167 76° East 510 587 35,000  Level Anchorage Center
07:40AM 62.0500 -163.3167 70° East 510 587 35,000  Level Anchorage Center
07:41AM 62.0833 -163.0167 77° East 530 610 35,000  Level Anchorage Center
07:42AM 62.1333 -162.7167 70° East 530 610 35,000  Level Anchorage Center
07:43AM 62.1833 -162.4167 70° East 530 610 35,000  Level Anchorage Center
07:44AM 62.2500 -162.1333 63° Northeast 520 598 35,000  Level Anchorage Center
07:45AM 62.3000 -161.8500 69° East 520 598 35,000  Level Anchorage Center
07:46AM 62.3667 -161.5667 63° Northeast 510 587 35,000  Level Anchorage Center
07:47AM 62.4333 -161.2833 63° Northeast 510 587 35,000  Level Anchorage Center
07:48AM 62.4833 -160.9833 70° East 520 598 35,000  Level Anchorage Center
07:49AM 62.5500 -160.7167 61° Northeast 510 587 35,000  Level Anchorage Center
07:50AM 62.6000 -160.4333 69° East 510 587 35,000  Level Anchorage Center
07:51AM 62.6667 -160.1500 63° Northeast 500 575 35,000  Level Anchorage Center
07:52AM 62.7167 -159.8667 69° East 510 587 35,000  Level Anchorage Center
07:53AM 62.7833 -159.5833 63° Northeast 500 575 35,000  Level Anchorage Center
07:54AM 62.8333 -159.3000 69° East 510 587 35,000  Level Anchorage Center
07:55AM 62.8833 -159.0000 70° East 510 587 35,000  Level Anchorage Center
07:56AM 62.9500 -158.7167 63° Northeast 510 587 35,000  Level Anchorage Center
07:57AM 63.0000 -158.4333 69° East 510 587 35,000  Level Anchorage Center
07:58AM 63.0500 -158.1333 70° East 510 587 35,000  Level Anchorage Center
07:59AM 63.1000 -157.8500 69° East 500 575 35,000  Level Anchorage Center
08:00AM 63.1500 -157.5500 70° East 510 587 35,000  Level Anchorage Center
08:01AM 63.2000 -157.2667 69° East 500 575 35,000  Level Anchorage Center
08:02AM 63.2667 -156.9667 64° Northeast 500 575 35,000  Level Anchorage Center
08:03AM 63.3167 -156.6833 68° East 500 575 35,000  Level Anchorage Center
08:04AM 63.3667 -156.3833 69° East 500 575 35,000  Level Anchorage Center
08:05AM 63.4000 -156.0833 76° East 500 575 35,000  Level Anchorage Center
08:06AM 63.4500 -155.7833 69° East 500 575 35,000  Level Anchorage Center
08:07AM 63.5000 -155.4833 69° East 500 575 35,000  Level Anchorage Center
08:08AM 63.5500 -155.2000 68° East 500 575 35,000  Level Anchorage Center
08:09AM 63.6000 -154.9000 69° East 500 575 35,000  Level Anchorage Center
08:15AM 63.8710 -153.0690 69° East 493 567 35,000  Level FlightAware
08:15AM 63.8980 -152.8670 73° East 492 566 35,000  Level FlightAware
08:17AM 63.9500 -152.4750 73° East 492 566 35,000  Level FlightAware
08:18AM 63.9850 -152.2180 73° East 492 566 35,000  Level FlightAware
08:18AM 64.0060 -152.0620 73° East 492 566 35,000  Level FlightAware
08:19AM 64.0430 -151.7640 74° East 491 565 35,000  Level FlightAware
08:20AM 64.0770 -151.4940 74° East 489 563 35,000  Level FlightAware
08:21AM 64.1120 -151.2090 74° East 489 563 35,000  Level FlightAware
08:22AM 64.1380 -151.0000 74° East 487 560 35,000  Level FlightAware
08:22AM 64.1610 -150.8080 75° East 487 560 35,000  Level FlightAware
08:23AM 64.1890 -150.5680 75° East 486 559 35,000  Level FlightAware
08:24AM 64.2130 -150.3640 75° East 486 559 35,000  Level FlightAware
08:24AM 64.2320 -150.2000 75° East 486 559 35,000  Level FlightAware
08:25AM 64.2570 -149.9790 75° East 486 559 35,000  Level FlightAware
08:26AM 64.2750 -149.8260 75° East 486 559 35,000  Level FlightAware
08:27AM 64.3040 -149.5610 76° East 486 559 35,000  Level FlightAware
08:27AM 64.3260 -149.3630 76° East 486 559 35,000  Level FlightAware
08:28AM 64.3520 -149.1150 76° East 486 559 35,000  Level FlightAware
08:29AM 64.3680 -148.9610 76° East 486 559 35,000  Level FlightAware
08:30AM 64.3960 -148.7030 76° East 486 559 35,000  Level FlightAware
08:30AM 64.4130 -148.5490 76° East 486 559 35,000  Level FlightAware
08:31AM 64.4350 -148.3380 76° East 486 559 35,000  Level FlightAware
08:32AM 64.4520 -148.1830 76° East 486 559 35,000  Level FlightAware
08:33AM 64.4750 -147.9730 76° East 486 559 35,000  Level FlightAware
08:33AM 64.4910 -147.8180 76° East 486 559 35,000  Level FlightAware
08:34AM 64.5080 -147.6630 76° East 486 559 35,000  Level FlightAware
08:35AM 64.5410 -147.3520 76° East 486 559 35,000  Level FlightAware
08:36AM 64.5630 -147.1450 76° East 486 559 35,000  Level FlightAware
08:36AM 64.5800 -146.9890 76° East 486 559 35,000  Level FlightAware
08:37AM 64.5960 -146.8340 76° East 486 559 35,000  Level FlightAware
08:38AM 64.6333 -146.0667 76° East 490 564 35,000  Level Anchorage Center
08:39AM 64.6500 -145.7667 82° East 490 564 35,000  Level Anchorage Center
08:40AM 64.6833 -145.4333 77° East 490 564 35,000  Level Anchorage Center
08:41AM 64.7000 -145.1333 82° East 490 564 35,000  Level Anchorage Center
08:42AM 64.7333 -144.8000 77° East 490 564 35,000  Level Anchorage Center
08:43AM 64.7500 -144.5000 82° East 490 564 35,000  Level Anchorage Center
08:44AM 64.7833 -144.1667 77° East 490 564 35,000  Level Anchorage Center
08:45AM 64.8000 -143.8667 82° East 490 564 35,000  Level Anchorage Center
08:46AM 64.8167 -143.5667 82° East 500 575 35,000  Level Anchorage Center
08:47AM 64.8333 -143.2500 83° East 500 575 35,000  Level Anchorage Center
08:48AM 64.8667 -142.9333 76° East 490 564 35,000  Level Anchorage Center
08:49AM 64.8833 -142.6000 83° East 500 575 35,000  Level Anchorage Center
08:50AM 64.9000 -142.2833 83° East 490 564 35,000  Level Anchorage Center
08:51AM 64.9167 -141.9667 83° East 490 564 35,000  Level Anchorage Center
08:52AM 64.9333 -141.6333 83° East 500 575 35,000  Level Anchorage Center
08:54AM 64.9614 -141.1035 83° East  Level FlightAware Approximate
09:01AM 64.9488 -138.5551 90° East  Level FlightAware Approximate
09:02AM 64.9427 -138.1913 92° East  Level FlightAware Approximate
09:03AM 64.9357 -137.8277 92° East  Level FlightAware Approximate
09:04AM 64.9213 -137.4706 95° East  Level FlightAware Approximate
09:05AM 64.9061 -137.1138 96° East  Level FlightAware Approximate
09:06AM 64.8900 -136.7574 96° East  Level FlightAware Approximate
09:07AM 64.8731 -136.4015 96° East  Level FlightAware Approximate
09:08AM 64.8553 -136.0461 97° East  Level FlightAware Approximate
09:09AM 64.8366 -135.6911 97° East  Level FlightAware Approximate
09:10AM 64.8171 -135.3366 97° East  Level FlightAware Approximate
09:11AM 64.7968 -134.9826 98° East  Level FlightAware Approximate
09:12AM 64.7756 -134.6292 98° East  Level FlightAware Approximate
09:13AM 64.7536 -134.2764 98° East  Level FlightAware Approximate
09:14AM 64.7308 -133.9241 98° East  Level FlightAware Approximate
09:15AM 64.7071 -133.5724 99° East  Level FlightAware Approximate
09:16AM 64.6826 -133.2214 99° East  Level FlightAware Approximate
09:17AM 64.6572 -132.8710 99° East  Level FlightAware Approximate
09:18AM 64.6311 -132.5213 100° East  Level FlightAware Approximate
09:19AM 64.6041 -132.1723 100° East  Level FlightAware Approximate
09:20AM 64.5763 -131.8239 100° East  Level FlightAware Approximate
09:21AM 64.5476 -131.4763 101° East  Level FlightAware Approximate
09:22AM 64.5182 -131.1295 101° East  Level FlightAware Approximate
09:23AM 64.4879 -130.7833 101° East  Level FlightAware Approximate
09:24AM 64.4568 -130.4380 102° East  Level FlightAware Approximate
09:25AM 64.4249 -130.0934 102° East  Level FlightAware Approximate
09:26AM 64.3923 -129.7497 102° East  Level FlightAware Approximate
09:27AM 64.3588 -129.4068 103° East  Level FlightAware Approximate
09:28AM 64.3245 -129.0647 103° East  Level FlightAware Approximate
09:29AM 64.2894 -128.7235 103° East  Level FlightAware Approximate
09:30AM 64.2535 -128.3832 103° East  Level FlightAware Approximate
09:31AM 64.2168 -128.0437 104° East  Level FlightAware Approximate
09:32AM 64.1795 -127.7059 104° East  Level FlightAware Approximate
09:33AM 64.1413 -127.3689 104° East  Level FlightAware Approximate
09:34AM 64.1024 -127.0329 105° East  Level FlightAware Approximate
09:35AM 64.0627 -126.6979 105° East  Level FlightAware Approximate
09:36AM 64.0222 -126.3638 105° East  Level FlightAware Approximate
09:37AM 63.9810 -126.0306 106° East  Level FlightAware Approximate
09:38AM 63.9390 -125.6985 106° East  Level FlightAware Approximate
09:39AM 63.8962 -125.3674 106° East  Level FlightAware Approximate
09:40AM 63.8527 -125.0373 107° East  Level FlightAware Approximate
09:41AM 63.8084 -124.7082 107° East  Level FlightAware Approximate
09:42AM 63.7634 -124.3802 107° East  Level FlightAware Approximate
09:43AM 63.7177 -124.0532 107° East  Level FlightAware Approximate
09:44AM 63.6712 -123.7272 108° East  Level FlightAware Approximate
09:45AM 63.6240 -123.4024 108° East  Level FlightAware Approximate
09:46AM 63.5760 -123.0786 108° East  Level FlightAware Approximate
09:47AM 63.5273 -122.7560 109° East  Level FlightAware Approximate
09:48AM 63.4779 -122.4344 109° East  Level FlightAware Approximate
09:49AM 63.4278 -122.1140 109° East  Level FlightAware Approximate
09:50AM 63.3770 -121.7946 109° East  Level FlightAware Approximate
09:50AM 63.1833 -123.4000 111° Southeast 550 633 35,000  Level Edmonton Center
09:51AM 63.3254 -121.4765 110° East  Level FlightAware Approximate
09:51AM 63.1167 -123.0833 115° Southeast 530 610 35,000  Level Edmonton Center
09:52AM 63.2732 -121.1594 110° East  Level FlightAware Approximate
09:52AM 63.0333 -122.8000 123° Southeast 530 610 35,000  Level Edmonton Center
09:53AM 63.2202 -120.8436 110° East  Level FlightAware Approximate
09:53AM 62.9667 -122.4833 115° Southeast 530 610 35,000  Level Edmonton Center
09:54AM 63.1666 -120.5288 111° Southeast  Level FlightAware Approximate
09:54AM 62.9167 -122.2167 112° Southeast 530 610 35,000  Level Edmonton Center
09:55AM 63.1122 -120.2153 111° Southeast  Level FlightAware Approximate
09:55AM 62.8500 -121.9167 116° Southeast 530 610 35,000  Level Edmonton Center
09:56AM 62.7667 -121.6000 120° Southeast 540 621 35,000  Level Edmonton Center
09:57AM 62.7000 -121.3333 119° Southeast 540 621 35,000  Level Edmonton Center
09:58AM 62.6500 -121.0500 111° Southeast 530 610 35,000  Level Edmonton Center
09:59AM 62.5833 -120.7333 114° Southeast 530 610 35,000  Level Edmonton Center
10:00AM 62.5000 -120.4667 124° Southeast 530 610 35,000  Level Edmonton Center
10:01AM 62.4333 -120.1667 116° Southeast 540 621 35,000  Level Edmonton Center
10:02AM 62.3667 -119.8833 117° Southeast 530 610 35,000  Level Edmonton Center
10:03AM 62.2833 -119.5833 121° Southeast 530 610 35,000  Level Edmonton Center
10:04AM 62.2167 -119.3167 118° Southeast 530 610 35,000  Level Edmonton Center
10:05AM 62.1500 -119.0333 117° Southeast 530 610 35,000  Level Edmonton Center
10:06AM 62.0833 -118.7667 118° Southeast 530 610 35,000  Level Edmonton Center
10:07AM 62.0000 -118.4833 122° Southeast 530 610 35,000  Level Edmonton Center
10:08AM 61.9333 -118.1833 115° Southeast 530 610 35,000  Level Edmonton Center
10:09AM 61.8500 -117.9333 125° Southeast 530 610 35,000  Level Edmonton Center
10:10AM 61.7833 -117.6500 116° Southeast 530 610 35,000  Level Edmonton Center
10:11AM 61.7167 -117.4000 119° Southeast 530 610 35,000  Level Edmonton Center
10:12AM 61.6333 -117.1167 122° Southeast 530 610 35,000  Level Edmonton Center
10:13AM 61.5500 -116.8333 122° Southeast 530 610 35,000  Level Edmonton Center
10:14AM 61.4667 -116.5500 122° Southeast 530 610 35,000  Level Edmonton Center
10:15AM 61.4000 -116.3167 121° Southeast 530 610 35,000  Level Edmonton Center
10:16AM 61.3333 -116.0333 116° Southeast 530 610 35,000  Level Edmonton Center
10:17AM 61.2500 -115.7833 125° Southeast 530 610 35,000  Level Edmonton Center
10:18AM 61.1667 -115.5167 123° Southeast 520 598 35,000  Level Edmonton Center
10:19AM 61.0833 -115.2667 125° Southeast 520 598 35,000  Level Edmonton Center
10:20AM 61.0167 -115.0000 117° Southeast 520 598 35,000  Level Edmonton Center
10:21AM 60.9333 -114.7667 126° Southeast 520 598 35,000  Level Edmonton Center
10:22AM 60.8500 -114.5000 123° Southeast 520 598 35,000  Level Edmonton Center
10:23AM 60.7667 -114.2167 121° Southeast 520 598 35,000  Level Edmonton Center
10:24AM 60.6833 -113.9833 126° Southeast 520 598 35,000  Level Edmonton Center
10:25AM 60.6000 -113.7333 124° Southeast 520 598 35,000  Level Edmonton Center
10:26AM 60.5167 -113.5000 126° Southeast 520 598 35,000  Level Edmonton Center
10:27AM 60.4500 -113.2333 117° Southeast 520 598 35,000  Level Edmonton Center
10:28AM 60.3667 -113.0000 126° Southeast 510 587 35,000  Level Edmonton Center
10:29AM 60.2667 -112.7833 133° Southeast 510 587 35,000  Level Edmonton Center
10:30AM 60.2000 -112.5167 117° Southeast 510 587 35,000  Level Edmonton Center
10:31AM 60.1167 -112.3000 128° Southeast 510 587 35,000  Level Edmonton Center
10:32AM 60.0333 -112.0667 125° Southeast 500 575 35,000  Level Edmonton Center
10:33AM 59.9833 -111.7833 109° East 500 575 35,000  Level Edmonton Center
10:34AM 59.9500 -111.5000 103° East 500 575 35,000  Level Edmonton Center
10:35AM 59.9333 -111.2333 97° East 500 575 35,000  Level Edmonton Center
10:36AM 59.8833 -110.9500 109° East 500 575 35,000  Level Edmonton Center
10:37AM 59.8500 -110.6667 103° East 500 575 35,000  Level Edmonton Center
10:38AM 59.8167 -110.4333 106° East 500 575 35,000  Level Edmonton Center
10:39AM 59.7500 -110.1500 115° Southeast 500 575 35,000  Level Edmonton Center
10:40AM 59.7000 -109.9000 112° Southeast 500 575 35,000  Level Edmonton Center
10:41AM 59.6333 -109.6667 119° Southeast 500 575 35,000  Level Edmonton Center
10:42AM 59.5833 -109.4167 111° Southeast 500 575 35,000  Level Edmonton Center
10:43AM 59.5167 -109.1500 116° Southeast 500 575 35,000  Level Edmonton Center
10:44AM 59.4500 -108.9000 118° Southeast 510 587 35,000  Level Edmonton Center
10:45AM 59.4000 -108.6333 110° East 500 575 35,000  Level Edmonton Center
10:46AM 59.3333 -108.3833 118° Southeast 500 575 35,000  Level Edmonton Center
10:47AM 59.2833 -108.1167 110° East 510 587 35,000  Level Edmonton Center
10:48AM 59.2167 -107.8833 119° Southeast 500 575 35,000  Level Edmonton Center
10:49AM 59.1500 -107.6333 117° Southeast 500 575 35,000  Level Edmonton Center
10:50AM 59.0833 -107.4000 119° Southeast 510 587 35,000  Level Edmonton Center
10:51AM 59.0167 -107.1333 116° Southeast 510 587 35,000  Level Edmonton Center
10:52AM 58.9667 -106.9000 112° Southeast 510 587 35,000  Level Edmonton Center
10:53AM 58.9000 -106.6333 116° Southeast 520 598 35,000  Level Edmonton Center
10:54AM 58.8167 -106.4000 125° Southeast 510 587 35,000  Level Edmonton Center
10:55AM 58.7500 -106.1333 116° Southeast 520 598 35,000  Level Edmonton Center
10:56AM 58.6833 -105.9000 119° Southeast 510 587 35,000  Level Edmonton Center
10:57AM 58.6167 -105.6500 117° Southeast 530 610 35,000  Level Edmonton Center
10:58AM 58.5500 -105.3833 116° Southeast 520 598 35,000  Level Edmonton Center
10:59AM 58.4833 -105.1500 119° Southeast 520 598 35,000  Level Edmonton Center
11:00AM 58.4167 -104.9000 117° Southeast 520 598 35,000  Level Edmonton Center
11:01AM 58.3500 -104.6667 118° Southeast 510 587 35,000  Level Edmonton Center
11:02AM 58.2667 -104.4167 122° Southeast 520 598 35,000  Level Edmonton Center
11:03AM 58.1833 -104.1500 121° Southeast 520 598 35,000  Level Edmonton Center
11:04AM 58.1167 -103.9333 120° Southeast 520 598 35,000  Level Edmonton Center
11:05AM 58.0500 -103.6833 117° Southeast 520 598 35,000  Level Edmonton Center
11:06AM 57.9833 -103.4167 115° Southeast 520 598 35,000  Level Edmonton Center
11:07AM 57.9167 -103.2000 120° Southeast 520 598 35,000  Level Edmonton Center
11:08AM 57.8167 -102.9500 127° Southeast 520 598 35,000  Level Edmonton Center
11:09AM 57.7500 -102.7000 116° Southeast 520 598 35,000  Level Edmonton Center
11:10AM 57.6833 -102.4833 120° Southeast 520 598 35,000  Level Edmonton Center
11:11AM 57.6000 -102.2333 122° Southeast 520 598 35,000  Level Edmonton Center
11:12AM 57.5333 -101.9833 116° Southeast 520 598 35,000  Level Edmonton Center
11:13AM 57.4500 -101.7667 125° Southeast 520 598 35,000  Level Edmonton Center
11:14AM 57.3833 -101.5333 118° Southeast 520 598 35,000  Level Edmonton Center
11:15AM 57.2833 -101.3167 130° Southeast 520 598 35,000  Level Edmonton Center
11:16AM 57.2167 -101.0667 116° Southeast 520 598 35,000  Level Edmonton Center
11:17AM 57.1333 -100.8333 123° Southeast 520 598 35,000  Level Edmonton Center
11:18AM 57.0667 -100.6167 119° Southeast 520 598 35,000  Level Edmonton Center
11:19AM 56.9833 -100.3833 123° Southeast 520 598 35,000  Level Edmonton Center
11:20AM 56.9167 -100.1667 119° Southeast 520 598 35,000  Level Edmonton Center
11:21AM 56.8167 -99.9333 128° Southeast 520 598 35,000  Level Edmonton Center
11:22AM 56.7333 -99.7000 123° Southeast 520 598 35,000  Level Edmonton Center
11:23AM 56.6667 -99.4667 117° Southeast 520 598 35,000  Level Edmonton Center
11:24AM 56.5833 -99.2667 127° Southeast 530 610 35,000  Level Edmonton Center
11:25AM 56.5000 -99.0333 123° Southeast 530 610 35,000  Level Edmonton Center
11:26AM 56.4167 -98.8000 123° Southeast 530 610 35,000  Level Edmonton Center
11:27AM 56.3333 -98.5667 123° Southeast 540 621 35,000  Level Edmonton Center
11:28AM 56.2500 -98.3333 123° Southeast 540 621 35,000  Level Edmonton Center
11:29AM 56.1667 -98.1333 127° Southeast 540 621 35,000  Level Edmonton Center
11:30AM 56.0667 -97.8833 126° Southeast 540 621 35,000  Level Edmonton Center
11:31AM 55.9833 -97.6833 127° Southeast 540 621 35,000  Level Edmonton Center
11:32AM 55.9000 -97.4500 122° Southeast 540 621 35,000  Level Edmonton Center
11:33AM 55.8167 -97.2000 121° Southeast 540 621 35,000  Level Edmonton Center
11:34AM 55.7167 -97.0000 132° Southeast 540 621 35,000  Level Edmonton Center
11:35AM 55.6333 -96.7833 124° Southeast 540 621 35,000  Level Edmonton Center
11:36AM 55.5500 -96.5500 122° Southeast 540 621 35,000  Level Edmonton Center
11:37AM 55.4667 -96.3333 124° Southeast 540 621 35,000  Level Edmonton Center
11:37AM 55.4167 -96.2000 123° Southeast 550 633 35,000  Level Winnipeg Center
11:38AM 55.3167 -96.0000 131° Southeast 550 633 35,000 300 Level Winnipeg Center
11:39AM 55.2333 -95.7667 122° Southeast 550 633 35,600 900 Climbing Winnipeg Center
11:40AM 55.1500 -95.5333 122° Southeast 550 633 36,800 660 Climbing Winnipeg Center
11:41AM 55.0333 -95.3333 135° Southeast 550 633 37,000 60 Climbing Winnipeg Center
11:42AM 54.9500 -95.1333 126° Southeast 550 633 37,000  Level Winnipeg Center
11:43AM 54.8667 -94.9000 122° Southeast 550 633 37,000  Level Winnipeg Center
11:44AM 54.7833 -94.7000 126° Southeast 550 633 37,000  Level Winnipeg Center
11:45AM 54.6667 -94.4667 131° Southeast 550 633 37,000  Level Winnipeg Center
11:46AM 54.5833 -94.2833 128° Southeast 550 633 37,000  Level Winnipeg Center
11:47AM 54.5000 -94.0500 122° Southeast 550 633 37,000  Level Winnipeg Center
11:48AM 54.3833 -93.8500 135° Southeast 550 633 37,000  Level Winnipeg Center
11:49AM 54.3000 -93.6667 128° Southeast 550 633 37,000  Level Winnipeg Center
11:50AM 54.2167 -93.4333 121° Southeast 550 633 37,000  Level Winnipeg Center
11:51AM 54.1167 -93.2500 133° Southeast 550 633 37,000  Level Winnipeg Center
11:52AM 54.0167 -93.0333 128° Southeast 550 633 37,000  Level Winnipeg Center
11:53AM 53.9167 -92.8333 130° Southeast 550 633 37,000  Level Winnipeg Center
11:54AM 53.8167 -92.6167 128° Southeast 550 633 37,000  Level Winnipeg Center
11:55AM 53.7333 -92.4333 127° Southeast 550 633 37,000  Level Winnipeg Center
11:56AM 53.6333 -92.2167 128° Southeast 550 633 37,000  Level Winnipeg Center
11:57AM 53.5333 -92.0000 128° Southeast 550 633 37,000  Level Winnipeg Center
11:58AM 53.4333 -91.8167 132° Southeast 560 644 37,000  Level Winnipeg Center
11:59AM 53.3333 -91.6000 128° Southeast 560 644 37,000  Level Winnipeg Center
12:00PM 53.2500 -91.4167 127° Southeast 550 633 37,000  Level Winnipeg Center
12:01PM 53.1333 -91.2167 134° Southeast 550 633 37,000  Level Winnipeg Center
12:02PM 53.0500 -91.0333 127° Southeast 550 633 37,000  Level Winnipeg Center
12:03PM 52.9333 -90.8167 132° Southeast 550 633 37,000  Level Winnipeg Center
12:04PM 52.8333 -90.6333 132° Southeast 550 633 37,000  Level Winnipeg Center
12:05PM 52.7500 -90.4333 124° Southeast 550 633 37,000  Level Winnipeg Center
12:06PM 52.6500 -90.2500 132° Southeast 550 633 37,000  Level Winnipeg Center
12:07PM 52.5333 -90.0500 134° Southeast 550 633 37,000  Level Winnipeg Center
12:08PM 52.4500 -89.8667 127° Southeast 550 633 37,000  Level Winnipeg Center
12:09PM 52.3500 -89.6667 129° Southeast 550 633 37,000  Level Winnipeg Center
12:10PM 52.2500 -89.4833 132° Southeast 550 633 37,000  Level Winnipeg Center
12:11PM 52.1333 -89.2833 133° Southeast 550 633 37,000  Level Winnipeg Center
12:12PM 52.0333 -89.1167 134° Southeast 550 633 37,000  Level Winnipeg Center
12:13PM 51.9500 -88.9333 126° Southeast 550 633 37,000  Level Winnipeg Center
12:14PM 51.8333 -88.7500 136° Southeast 550 633 37,000  Level Winnipeg Center
12:15PM 51.7333 -88.5667 131° Southeast 550 633 37,000  Level Winnipeg Center
12:16PM 51.6333 -88.3667 129° Southeast 550 633 37,000  Level Winnipeg Center
12:17PM 51.5167 -88.1833 136° Southeast 550 633 37,000  Level Winnipeg Center
12:18PM 51.4167 -87.9833 129° Southeast 550 633 37,000  Level Winnipeg Center
12:19PM 51.3167 -87.8167 134° Southeast 550 633 37,000  Level Winnipeg Center
12:20PM 51.2000 -87.6167 133° Southeast 550 633 37,000  Level Winnipeg Center
12:21PM 51.1167 -87.4500 128° Southeast 550 633 37,000  Level Winnipeg Center
12:22PM 51.0167 -87.2833 134° Southeast 550 633 37,000  Level Winnipeg Center
12:23PM 50.9000 -87.1000 135° Southeast 560 644 37,000  Level Winnipeg Center
12:24PM 50.8000 -86.9333 133° Southeast 560 644 37,000  Level Winnipeg Center
12:25PM 50.6833 -86.7500 135° Southeast 560 644 37,000  Level Winnipeg Center
12:26PM 50.5833 -86.5833 133° Southeast 560 644 37,000  Level Winnipeg Center
12:27PM 50.4833 -86.4000 131° Southeast 570 656 37,000  Level Winnipeg Center
12:28PM 50.3500 -86.2167 139° Southeast 560 644 37,000  Level Winnipeg Center
12:29PM 50.2667 -86.0500 128° Southeast 560 644 37,000  Level Winnipeg Center
12:30PM 50.1333 -85.8667 139° Southeast 560 644 37,000  Level Winnipeg Center
12:31PM 50.0333 -85.6833 130° Southeast 560 644 37,000  Level Winnipeg Center
12:32PM 49.9333 -85.5167 133° Southeast 560 644 37,000  Level Winnipeg Center
12:33PM 49.8167 -85.3500 137° Southeast 560 644 37,000  Level Winnipeg Center
12:34PM 49.7167 -85.1833 133° Southeast 560 644 37,000  Level Winnipeg Center
12:35PM 49.6167 -85.0333 136° Southeast 560 644 37,000  Level Winnipeg Center
12:36PM 49.5000 -84.8500 134° Southeast 560 644 37,000  Level Winnipeg Center
12:37PM 49.4000 -84.7000 136° Southeast 550 633 37,000 300 Level Winnipeg Center
12:43PM 48.8230 -83.8520 136° Southeast 546 628 39,000 300 Climbing FlightAware
12:44PM 48.7470 -83.7370 135° Southeast 546 628 39,000  Level FlightAware
12:44PM 48.6810 -83.6350 134° Southeast 546 628 39,000  Level FlightAware
12:45PM 48.6230 -83.5480 135° Southeast 546 628 39,000  Level FlightAware
12:46PM 48.5680 -83.4650 135° Southeast 546 628 39,000  Level FlightAware
12:46PM 48.5120 -83.3810 135° Southeast 546 628 39,000  Level FlightAware
12:47PM 48.4390 -83.2710 135° Southeast 546 628 39,000  Level FlightAware
12:48PM 48.3850 -83.1880 134° Southeast 546 628 39,000  Level FlightAware
12:49PM 48.3120 -83.0790 135° Southeast 546 628 39,000  Level FlightAware
12:49PM 48.1600 -82.8890 140° Southeast 526 605 39,000  Level FlightAware
12:50PM 48.1000 -82.8030 136° Southeast 526 605 39,000  Level FlightAware
12:50PM 48.0320 -82.7040 136° Southeast 526 605 39,000  Level FlightAware
12:51PM 47.9780 -82.6270 136° Southeast 526 605 39,000  Level FlightAware
12:52PM 47.9050 -82.5220 136° Southeast 526 605 39,000  Level FlightAware
12:53PM 47.7910 -82.3690 138° Southeast 527 606 39,000  Level FlightAware
12:53PM 47.7010 -82.2440 137° Southeast 523 602 39,000  Level FlightAware
12:54PM 47.6300 -82.1440 136° Southeast 520 598 39,000  Level FlightAware
12:55PM 47.5520 -82.0400 138° Southeast 517 595 39,000  Level FlightAware
12:55PM 47.4810 -81.9410 137° Southeast 517 595 39,000  Level FlightAware
12:56PM 47.4080 -81.8400 137° Southeast 517 595 39,000  Level FlightAware
12:57PM 47.3370 -81.7440 137° Southeast 520 598 39,000  Level FlightAware
12:58PM 47.2590 -81.6380 137° Southeast 520 598 39,000  Level FlightAware
12:58PM 47.1800 -81.5330 138° Southeast 523 602 39,000  Level FlightAware
12:59PM 47.1100 -81.4370 137° Southeast 523 602 39,000  Level FlightAware
01:00PM 47.0370 -81.3390 138° Southeast 523 602 39,000  Level FlightAware
01:00PM 46.9580 -81.2340 138° Southeast 520 598 39,000  Level FlightAware
01:01PM 46.8890 -81.1420 138° Southeast 516 594 39,000  Level FlightAware
01:02PM 46.8060 -81.0320 138° Southeast 515 593 39,000  Level FlightAware
01:02PM 46.7370 -80.9410 138° Southeast 515 593 39,000  Level FlightAware
01:03PM 46.6730 -80.8550 137° Southeast 514 592 39,000  Level FlightAware
01:04PM 46.6020 -80.7620 138° Southeast 516 594 39,000  Level FlightAware
01:04PM 46.5290 -80.6570 135° Southeast 514 592 39,000  Level FlightAware
01:05PM 46.4740 -80.5760 135° Southeast 512 589 39,000  Level FlightAware
01:06PM 46.3970 -80.4650 135° Southeast 511 588 39,000  Level FlightAware
01:06PM 46.3360 -80.3780 135° Southeast 510 587 39,000  Level FlightAware
01:07PM 46.2650 -80.2760 135° Southeast 509 586 39,000  Level FlightAware
01:08PM 46.1850 -80.1640 136° Southeast 509 586 39,000  Level FlightAware
01:09PM 46.1190 -80.0720 136° Southeast 509 586 39,000  Level FlightAware
01:09PM 46.0450 -79.9680 136° Southeast 508 585 39,000  Level FlightAware
01:10PM 45.9900 -79.8900 135° Southeast 508 585 39,000  Level FlightAware
01:10PM 45.9320 -79.8030 134° Southeast 508 585 39,000  Level FlightAware
01:11PM 45.8540 -79.6860 134° Southeast 508 585 39,000  Level FlightAware
01:14PM 45.7458 -79.5365 136° Southeast  Level FlightAware Approximate
01:15PM 45.6984 -79.4712 136° Southeast  Level FlightAware Approximate
01:16PM 45.6509 -79.4060 136° Southeast  Level FlightAware Approximate
01:17PM 45.6034 -79.3410 136° Southeast  Level FlightAware Approximate
01:18PM 45.5559 -79.2760 136° Southeast  Level FlightAware Approximate
01:19PM 45.5083 -79.2112 136° Southeast  Level FlightAware Approximate
01:20PM 45.4607 -79.1464 136° Southeast  Level FlightAware Approximate
01:21PM 45.4130 -79.0818 136° Southeast  Level FlightAware Approximate
01:22PM 45.3653 -79.0173 136° Southeast  Level FlightAware Approximate
01:23PM 45.3176 -78.9528 136° Southeast  Level FlightAware Approximate
01:24PM 45.2699 -78.8885 137° Southeast  Level FlightAware Approximate
01:25PM 45.2221 -78.8243 137° Southeast  Level FlightAware Approximate
01:26PM 45.1742 -78.7602 137° Southeast  Level FlightAware Approximate
01:27PM 45.1264 -78.6963 137° Southeast  Level FlightAware Approximate
01:28PM 45.0785 -78.6324 137° Southeast  Level FlightAware Approximate
01:29PM 45.0302 -78.5691 137° Southeast  Level FlightAware Approximate
01:30PM 44.9818 -78.5061 137° Southeast  Level FlightAware Approximate
01:31PM 44.9333 -78.4432 137° Southeast  Level FlightAware Approximate
01:32PM 44.8850 -78.3802 137° Southeast  Level FlightAware Approximate
01:33PM 44.8368 -78.3170 137° Southeast  Level FlightAware Approximate
01:34PM 44.7886 -78.2539 137° Southeast  Level FlightAware Approximate
01:35PM 44.7404 -78.1908 137° Southeast  Level FlightAware Approximate
01:36PM 44.6922 -78.1279 137° Southeast  Level FlightAware Approximate
01:37PM 44.6439 -78.0651 137° Southeast  Level FlightAware Approximate
01:38PM 44.5956 -78.0023 137° Southeast  Level FlightAware Approximate
01:39PM 44.5472 -77.9397 137° Southeast  Level FlightAware Approximate
01:40PM 44.4988 -77.8772 137° Southeast  Level FlightAware Approximate
01:41PM 44.4504 -77.8148 137° Southeast  Level FlightAware Approximate
01:42PM 44.4020 -77.7525 137° Southeast  Level FlightAware Approximate
01:43PM 44.3535 -77.6903 137° Southeast  Level FlightAware Approximate
01:44PM 44.3050 -77.6282 138° Southeast  Level FlightAware Approximate
01:45PM 44.2564 -77.5662 138° Southeast  Level FlightAware Approximate
01:46PM 44.2078 -77.5043 138° Southeast  Level FlightAware Approximate
01:47PM 44.1592 -77.4426 138° Southeast  Level FlightAware Approximate
01:48PM 44.1105 -77.3809 138° Southeast  Level FlightAware Approximate
01:49PM 44.0618 -77.3193 138° Southeast  Level FlightAware Approximate
01:50PM 44.0131 -77.2578 138° Southeast  Level FlightAware Approximate
01:51PM 43.9644 -77.1964 138° Southeast  Level FlightAware Approximate
01:52PM 43.9156 -77.1351 138° Southeast  Level FlightAware Approximate
01:53PM 43.8668 -77.0739 138° Southeast  Level FlightAware Approximate
01:54PM 43.8179 -77.0129 138° Southeast  Level FlightAware Approximate
01:55PM 43.7690 -76.9519 138° Southeast  Level FlightAware Approximate
01:56PM 43.7201 -76.8910 138° Southeast  Level FlightAware Approximate
01:57PM 43.6712 -76.8302 138° Southeast  Level FlightAware Approximate
01:58PM 43.6221 -76.7697 139° Southeast  Level FlightAware Approximate
01:59PM 43.5725 -76.7100 139° Southeast  Level FlightAware Approximate
02:00PM 43.5229 -76.6504 139° Southeast  Level FlightAware Approximate
02:01PM 43.4733 -76.5909 139° Southeast  Level FlightAware Approximate
02:02PM 43.4236 -76.5314 139° Southeast  Level FlightAware Approximate
02:03PM 43.3740 -76.4719 138° Southeast  Level FlightAware Approximate
02:04PM 43.3248 -76.4119 138° Southeast  Level FlightAware Approximate
02:05PM 43.2755 -76.3520 138° Southeast  Level FlightAware Approximate
02:06PM 43.2262 -76.2922 139° Southeast  Level FlightAware Approximate
02:07PM 43.1769 -76.2325 139° Southeast  Level FlightAware Approximate
02:08PM 43.1205 -76.1926 170° South  Level FlightAware Approximate
02:09PM 43.0558 -76.1765 170° South  Level FlightAware Approximate
02:10PM 42.9913 -76.1589 167° South  Level FlightAware Approximate
02:11PM 42.9271 -76.1393 167° South  Level FlightAware Approximate
02:12PM 42.8629 -76.1197 167° South  Level FlightAware Approximate
02:13PM 42.7987 -76.1002 167° South  Level FlightAware Approximate
02:14PM 42.7345 -76.0807 167° South  Level FlightAware Approximate
02:15PM 42.6703 -76.0612 167° South  Level FlightAware Approximate
02:16PM 42.6059 -76.0428 169° South  Level FlightAware Approximate
02:17PM 42.5414 -76.0259 169° South  Level FlightAware Approximate
02:18PM 42.4767 -76.0090 169° South  Level FlightAware Approximate
02:19PM 42.4122 -75.9921 169° South  Level FlightAware Approximate
02:20PM 42.3475 -75.9753 169° South  Level FlightAware Approximate
02:21PM 42.2830 -75.9585 169° South  Level FlightAware Approximate
02:22PM 42.2187 -75.9396 166° South  Level FlightAware Approximate
02:23PM 42.1549 -75.9183 166° South  Level FlightAware Approximate
02:24PM 42.0909 -75.8974 168° South  Level FlightAware Approximate
02:25PM 42.0266 -75.8790 168° South  Level FlightAware Approximate
02:26PM 41.9622 -75.8606 168° South  Level FlightAware Approximate
02:27PM 41.8979 -75.8422 168° South  Level FlightAware Approximate
02:28PM 41.8328 -75.8333 180° South  Level FlightAware Approximate
02:29PM 41.7678 -75.8211 169° South  Level FlightAware Approximate
02:30PM 41.7035 -75.8029 168° South  Level FlightAware Approximate
02:31PM 41.6392 -75.7840 168° South  Level FlightAware Approximate
02:32PM 41.5750 -75.7651 168° South  Level FlightAware Approximate
02:33PM 41.5107 -75.7462 168° South  Level FlightAware Approximate
02:34PM 41.4463 -75.7315 159° South  Level FlightAware Approximate
02:35PM 41.3831 -75.7083 169° South  Level FlightAware Approximate
02:36PM 41.3184 -75.6921 169° South  Level FlightAware Approximate
02:37PM 41.2607 -75.6673 116° Southeast  Level FlightAware Approximate
02:38PM 41.2313 -75.5890 116° Southeast  Level FlightAware Approximate
02:39PM 41.2063 -75.5084 108° East  Level FlightAware Approximate
02:40PM 41.1855 -75.4254 108° East  Level FlightAware Approximate
02:41PM 41.1508 -75.3516 124° Southeast  Level FlightAware Approximate
02:42PM 41.1306 -75.2713 120° Southeast  Level FlightAware Approximate
02:43PM 41.0984 -75.1952 114° Southeast  Level FlightAware Approximate
02:44PM 41.0718 -75.1154 114° Southeast  Level FlightAware Approximate
02:45PM 41.0458 -75.0374 114° Southeast  Level FlightAware Approximate
02:46PM 41.0224 -74.9561 108° East  Level FlightAware Approximate
02:47PM 40.9987 -74.8820 143° Southeast  Level FlightAware Approximate
02:48PM 40.9833 -74.8050 90° East  Level FlightAware Approximate
02:49PM 40.9699 -74.7232 124° Southeast  Level FlightAware Approximate
02:50PM 40.9648 -74.6376 101° East  Level FlightAware Approximate
02:51PM 40.9517 -74.5522 101° East  Level FlightAware Approximate
02:52PM 40.9385 -74.4669 102° East  Level FlightAware Approximate
02:53PM 40.9333 -74.3805 90° East  Level FlightAware Approximate
02:54PM 40.9241 -74.2948 102° East  Level FlightAware Approximate
02:55PM 40.9167 -74.2088 90° East  Level FlightAware Approximate
02:56PM 40.8997 -74.1328 123° Southeast  Level FlightAware Approximate
02:57PM 40.8643 -74.0596 114° Southeast  Level FlightAware Approximate
02:58PM 40.8378 -73.9800 114° Southeast  Level FlightAware Approximate
02:59PM 40.8013 -73.9206 114° Southeast  Level FlightAware Approximate
03:00PM 40.7645 -73.8541 153° Southeast  Level FlightAware Approximate
03:01PM 40.7044 -73.8189 159° South  Level FlightAware Approximate
03:02PM 40.6469 -73.7769 150° Southeast  Level FlightAware Approximate
03:03PM 40.6398 -73.7789 150° Southeast  Level Estimated
03:04PM 40.6398 -73.7789 150° Southeast  Level Estimated
03:05PM 40.6398 -73.7789 150° Southeast  Level Estimated
03:06PM 40.6398 -73.7789 150° Southeast  Level Estimated
03:07PM 40.6398 -73.7789 150° Southeast  Level Estimated
03:08PM 40.6398 -73.7789 150° Southeast  Level Estimated
03:09PM 40.6398 -73.7789 150° Southeast  Level Estimated
03:10PM 40.6398 -73.7789 150° Southeast  Level Estimated
03:11PM 40.6398 -73.7789 150° Southeast  Level Estimated
03:12PM 40.6398 -73.7789 150° Southeast  Level Estimated
03:13PM 40.6398 -73.7789 150° Southeast  Level Estimated
03:14PM 40.6398 -73.7789 150° Southeast  Level Estimated
03:15PM 40.6398 -73.7789 150° Southeast  Level Estimated
03:16PM 40.6398 -73.7789 150° Southeast  Level Estimated
03:17PM 40.6398 -73.7789 150° Southeast  Level Estimated
03:18PM 40.6398 -73.7789 150° Southeast  Level Estimated
03:19PM 40.6398 -73.7789 150° Southeast  Level Estimated
03:20PM 40.6398 -73.7789 150° Southeast  Level Estimated
03:21PM 40.6398 -73.7789 150° Southeast  Level Estimated
03:22PM 40.6398 -73.7789 150° Southeast  Level Estimated
03:23PM 40.6398 -73.7789 150° Southeast  Level Estimated
03:24PM 40.6398 -73.7789 150° Southeast  Level Estimated
03:25PM 40.6398 -73.7789 150° Southeast  Level Estimated
03:26PM 40.6398 -73.7789 150° Southeast  Level Estimated
03:27PM 40.6398 -73.7789 150° Southeast  Level Estimated
03:28PM 40.6398 -73.7789 150° Southeast  Level Estimated
03:29PM 40.6398 -73.7789 150° Southeast  Level Estimated
03:30PM 40.6398 -73.7789 150° Southeast  Level Estimated
03:31PM 40.6398 -73.7789 150° Southeast  Level Estimated
03:32PM 40.6398 -73.7789 150° Southeast  Level Estimated
03:33PM 40.6398 -73.7789 150° Southeast  Level Estimated
03:34PM 40.6398 -73.7789 150° Southeast  Level Estimated
03:35PM 40.6398 -73.7789 150° Southeast  Level Estimated
03:36PM 40.6398 -73.7789 150° Southeast  Level Estimated
03:37PM 40.6398 -73.7789 150° Southeast  Level Estimated
03:38PM 40.6398 -73.7789 150° Southeast  Level Estimated
03:39PM 40.6398 -73.7789 150° Southeast  Level Estimated
03:40PM 40.6398 -73.7789 150° Southeast  Level Estimated
03:41PM 40.6398 -73.7789 150° Southeast  Level Estimated
03:42PM 40.6398 -73.7789 150° Southeast  Level Estimated
03:43PM 40.6398 -73.7789 150° Southeast  Level Estimated
03:44PM 40.6398 -73.7789 150° Southeast  Level Estimated
03:45PM 40.6398 -73.7789 150° Southeast  Level Estimated
03:46PM 40.6398 -73.7789 150° Southeast  Level Estimated
03:47PM 40.6398 -73.7789 150° Southeast  Level Estimated
03:48PM 40.6398 -73.7789 150° Southeast  Level Estimated
03:49PM 40.6398 -73.7789 150° Southeast  Level Estimated
03:50PM 40.6398 -73.7789 150° Southeast  Level Estimated
03:51PM 40.6398 -73.7789 150° Southeast  Level Estimated
03:52PM 40.6398 -73.7789 150° Southeast  Level Estimated
03:53PM 40.6398 -73.7789 150° Southeast  Level Estimated
03:54PM 40.6398 -73.7789 150° Southeast  Level Estimated
03:55PM 40.6398 -73.7789 150° Southeast  Level Estimated
03:56PM 40.6398 -73.7789 150° Southeast  Level Estimated
03:57PM 40.6398 -73.7789 150° Southeast  Level Estimated
03:58PM 40.6398 -73.7789 150° Southeast  Level Estimated
03:59PM 40.6398 -73.7789 150° Southeast  Level Estimated
04:00PM 40.6398 -73.7789 150° Southeast  Level Estimated
04:01PM 40.6398 -73.7789 150° Southeast  Level Estimated
04:02PM 40.6398 -73.7789 150° Southeast  Level Estimated
04:03PM 40.6398 -73.7789 150° Southeast  Level Estimated
04:04PM 40.6398 -73.7789 150° Southeast  Level Estimated
04:05PM 40.6398 -73.7789 150° Southeast  Level Estimated
04:06PM 40.6398 -73.7789 150° Southeast  Level Estimated
04:07PM 40.6398 -73.7789 150° Southeast  Level Estimated
04:08PM 40.6398 -73.7789 150° Southeast  Level Estimated
04:09PM 40.6398 -73.7789 150° Southeast  Level Estimated
04:10PM 40.6398 -73.7789 150° Southeast  Level Estimated
04:11PM 40.6398 -73.7789 150° Southeast  Level Estimated
04:12PM 40.6398 -73.7789 150° Southeast  Level Estimated
04:13PM 40.6398 -73.7789 150° Southeast  Level Estimated
04:14PM 40.6398 -73.7789 150° Southeast  Level Estimated
04:15PM 40.6398 -73.7789 150° Southeast  Level Estimated
04:16PM 40.6398 -73.7789 150° Southeast  Level Estimated
04:17PM 40.6398 -73.7789 150° Southeast  Level Estimated
04:18PM 40.6398 -73.7789 150° Southeast  Level Estimated
04:19PM 40.6398 -73.7789 150° Southeast  Level Estimated
04:20PM 40.6398 -73.7789 150° Southeast  Level Estimated
04:21PM 40.6398 -73.7789 150° Southeast  Level Estimated
04:22PM 40.6398 -73.7789 150° Southeast  Level Estimated
04:23PM 40.6398 -73.7789 150° Southeast  Level Estimated
04:24PM 40.6398 -73.7789 150° Southeast  Level Estimated
04:25PM 40.6398 -73.7789 150° Southeast  Level Estimated
04:26PM 40.6398 -73.7789 150° Southeast  Level Estimated
04:27PM 40.6398 -73.7789 150° Southeast  Level Estimated
04:28PM 40.6398 -73.7789 150° Southeast  Level Estimated
04:29PM 40.6398 -73.7789 150° Southeast  Level Estimated
04:30PM 40.6398 -73.7789 150° Southeast  Level Estimated
04:31PM 40.6398 -73.7789 150° Southeast  Level Estimated
04:32PM 40.6398 -73.7789 150° Southeast  Level Estimated
04:33PM 40.6398 -73.7789 150° Southeast  Level Estimated
04:34PM 40.6398 -73.7789 150° Southeast  Level Estimated
04:35PM 40.6398 -73.7789 150° Southeast  Level Estimated
04:36PM 40.6398 -73.7789 150° Southeast  Level Estimated
04:37PM 40.6398 -73.7789 150° Southeast  Level Estimated
04:38PM 40.6398 -73.7789 150° Southeast  Level Estimated
04:39PM 40.6398 -73.7789 150° Southeast  Level Estimated
04:40PM 40.6398 -73.7789 150° Southeast  Level Estimated
04:41PM 40.6398 -73.7789 150° Southeast  Level Estimated
04:42PM 40.6398 -73.7789 150° Southeast  Level Estimated
04:43PM 40.6398 -73.7789 150° Southeast  Level Estimated
04:44PM 40.6398 -73.7789 150° Southeast  Level Estimated
04:45PM 40.6398 -73.7789 150° Southeast  Level Estimated
04:46PM 40.6398 -73.7789 150° Southeast  Level Estimated
04:47PM 40.6398 -73.7789 150° Southeast  Level Estimated
04:48PM 40.6398 -73.7789 150° Southeast  Level Estimated
04:49PM 40.6398 -73.7789 150° Southeast  Level Estimated
04:50PM 40.6398 -73.7789 150° Southeast  Level Estimated
04:51PM 40.6398 -73.7789 150° Southeast  Level Estimated
04:52PM 40.6398 -73.7789 150° Southeast  Level Estimated
04:53PM 40.6398 -73.7789 150° Southeast  Level Estimated
04:54PM 40.6398 -73.7789 150° Southeast  Level Estimated
04:55PM 40.6398 -73.7789 150° Southeast  Level Estimated
04:56PM 40.6398 -73.7789 150° Southeast  Level Estimated
04:57PM 40.6398 -73.7789 150° Southeast  Level Estimated
04:58PM 40.6398 -73.7789 150° Southeast  Level Estimated
04:59PM 40.6398 -73.7789 150° Southeast  Level Estimated
05:00PM 40.6398 -73.7789 150° Southeast  Level Estimated
05:01PM 40.6398 -73.7789 150° Southeast  Level Estimated
05:02PM 40.6398 -73.7789 150° Southeast  Level Estimated
05:03PM 40.6398 -73.7789 150° Southeast  Level Estimated
05:04PM 40.6398 -73.7789 150° Southeast  Level Estimated
05:05PM 40.6398 -73.7789 150° Southeast  Level Estimated
05:06PM 40.6398 -73.7789 150° Southeast  Level Estimated
05:07PM 40.6398 -73.7789 150° Southeast  Level Estimated
05:08PM 40.6398 -73.7789 150° Southeast  Level Estimated
05:09PM 40.6398 -73.7789 150° Southeast  Level Estimated
05:10PM 40.6398 -73.7789 150° Southeast  Level Estimated
05:11PM 40.6398 -73.7789 150° Southeast  Level Estimated
05:12PM 40.6398 -73.7789 150° Southeast  Level Estimated
05:13PM 40.6398 -73.7789 150° Southeast  Level Estimated
05:14PM 40.6398 -73.7789 150° Southeast  Level Estimated
05:15PM 40.6398 -73.7789 150° Southeast  Level Estimated
05:16PM 40.6398 -73.7789 150° Southeast  Level Estimated
05:17PM 40.6398 -73.7789 150° Southeast  Level Estimated
05:18PM 40.6398 -73.7789 150° Southeast  Level Estimated
05:19PM 40.6398 -73.7789 150° Southeast  Level Estimated
05:20PM 40.6398 -73.7789 150° Southeast  Level Estimated
05:21PM 40.6398 -73.7789 150° Southeast  Level Estimated
05:22PM 40.6398 -73.7789 150° Southeast  Level Estimated
05:23PM 40.6398 -73.7789 150° Southeast  Level Estimated
05:24PM 40.6398 -73.7789 150° Southeast  Level Estimated
05:25PM 40.6398 -73.7789 150° Southeast  Level Estimated
05:26PM 40.6398 -73.7789 150° Southeast  Level Estimated
05:27PM 40.6398 -73.7789 150° Southeast  Level Estimated
05:28PM 40.6398 -73.7789 150° Southeast  Level Estimated
05:29PM 40.6398 -73.7789 150° Southeast  Level Estimated
05:30PM 40.6398 -73.7789 150° Southeast  Level Estimated
05:31PM 40.6398 -73.7789 150° Southeast  Level Estimated
05:32PM 40.6398 -73.7789 150° Southeast  Level Estimated
05:33PM 40.6398 -73.7789 150° Southeast  Level Estimated
05:34PM 40.6398 -73.7789 150° Southeast  Level Estimated
05:35PM 40.6398 -73.7789 150° Southeast  Level Estimated
05:36PM 40.6398 -73.7789 150° Southeast  Level Estimated
05:37PM 40.6398 -73.7789 150° Southeast  Level Estimated
05:38PM 40.6398 -73.7789 150° Southeast  Level Estimated
05:39PM 40.6398 -73.7789 150° Southeast  Level Estimated
05:40PM 40.6398 -73.7789 150° Southeast  Level Estimated
05:41PM 40.6398 -73.7789 150° Southeast  Level Estimated
05:42PM 40.6398 -73.7789 150° Southeast  Level Estimated
05:43PM 40.6398 -73.7789 150° Southeast  Level Estimated
05:44PM 40.6398 -73.7789 150° Southeast  Level Estimated
05:45PM 40.6398 -73.7789 150° Southeast  Level Estimated
05:46PM 40.6398 -73.7789 150° Southeast  Level Estimated
05:47PM 40.6398 -73.7789 150° Southeast  Level Estimated
05:48PM 40.6398 -73.7789 150° Southeast  Level Estimated
05:49PM 40.6398 -73.7789 150° Southeast  Level Estimated
05:50PM 40.6398 -73.7789 150° Southeast  Level Estimated
05:51PM 40.6398 -73.7789 150° Southeast  Level Estimated
05:52PM 40.6398 -73.7789 150° Southeast  Level Estimated
05:53PM 40.6398 -73.7789 150° Southeast  Level Estimated
05:54PM 40.6398 -73.7789 150° Southeast  Level Estimated
05:55PM 40.6398 -73.7789 150° Southeast  Level Estimated
05:56PM 40.6398 -73.7789 150° Southeast  Level Estimated
05:57PM 40.6398 -73.7789 150° Southeast  Level Estimated
05:58PM 40.6398 -73.7789 150° Southeast  Level Estimated
05:59PM 40.6398 -73.7789 150° Southeast  Level Estimated
06:00PM 40.6398 -73.7789 150° Southeast  Level Estimated
06:01PM 40.6398 -73.7789 150° Southeast  Level Estimated
06:02PM 40.6398 -73.7789 150° Southeast  Level Estimated
06:03PM 40.6398 -73.7789 150° Southeast  Level Estimated
06:04PM 40.6398 -73.7789 150° Southeast  Level Estimated
06:05PM 40.6398 -73.7789 150° Southeast  Level Estimated
06:06PM 40.6398 -73.7789 150° Southeast  Level Estimated
06:07PM 40.6398 -73.7789 150° Southeast  Level Estimated
06:08PM 40.6398 -73.7789 150° Southeast  Level Estimated
06:09PM 40.6398 -73.7789 150° Southeast  Level Estimated
06:10PM 40.6398 -73.7789 150° Southeast  Level Estimated
06:11PM 40.6398 -73.7789 150° Southeast  Level Estimated
06:12PM 40.6398 -73.7789 150° Southeast  Level Estimated
06:13PM 40.6398 -73.7789 150° Southeast  Level Estimated
06:14PM 40.6398 -73.7789 150° Southeast  Level Estimated
06:15PM 40.6398 -73.7789 150° Southeast  Level Estimated
06:16PM 40.6398 -73.7789 150° Southeast  Level Estimated
06:17PM 40.6398 -73.7789 150° Southeast  Level Estimated
06:18PM 40.6398 -73.7789 150° Southeast  Level Estimated
06:19PM 40.6398 -73.7789 150° Southeast  Level Estimated
06:20PM 40.6398 -73.7789 150° Southeast  Level Estimated
06:21PM 40.6398 -73.7789 150° Southeast  Level Estimated
06:22PM 40.6398 -73.7789 150° Southeast  Level Estimated
06:23PM 40.6398 -73.7789 150° Southeast  Level Estimated
06:24PM 40.6398 -73.7789 150° Southeast  Level Estimated
06:25PM 40.6398 -73.7789 150° Southeast  Level Estimated
06:26PM 40.6398 -73.7789 150° Southeast  Level Estimated
06:27PM 40.6398 -73.7789 150° Southeast  Level Estimated
06:28PM 40.6398 -73.7789 150° Southeast  Level Estimated
06:29PM 40.6398 -73.7789 150° Southeast  Level Estimated
06:30PM 40.6398 -73.7789 150° Southeast  Level Estimated
06:31PM 40.6398 -73.7789 150° Southeast  Level Estimated
06:32PM 40.6398 -73.7789 150° Southeast  Level Estimated
06:33PM 40.6398 -73.7789 150° Southeast  Level Estimated
06:34PM 40.6398 -73.7789 150° Southeast  Level Estimated
06:35PM 40.6398 -73.7789 150° Southeast  Level Estimated
06:36PM 40.6398 -73.7789 150° Southeast  Level Estimated
06:37PM 40.6398 -73.7789 150° Southeast  Level Estimated
06:38PM 40.6398 -73.7789 150° Southeast  Level Estimated
06:39PM 40.6398 -73.7789 150° Southeast  Level Estimated
06:40PM 40.6398 -73.7789 150° Southeast  Level Estimated
06:41PM 40.6398 -73.7789 150° Southeast  Level Estimated
06:42PM 40.6398 -73.7789 150° Southeast  Level Estimated
06:43PM 40.6398 -73.7789 150° Southeast  Level Estimated
06:44PM 40.6398 -73.7789 150° Southeast  Level Estimated
06:45PM 40.6398 -73.7789 150° Southeast  Level Estimated
06:46PM 40.6398 -73.7789 150° Southeast  Level Estimated
06:47PM 40.6398 -73.7789 150° Southeast  Level Estimated
06:48PM 40.6398 -73.7789 150° Southeast  Level Estimated
06:49PM 40.6398 -73.7789 150° Southeast  Level Estimated
06:50PM 40.6398 -73.7789 150° Southeast  Level Estimated
06:51PM 40.6398 -73.7789 150° Southeast  Level Estimated
06:52PM 40.6398 -73.7789 150° Southeast  Level Estimated
06:53PM 40.6398 -73.7789 150° Southeast  Level Estimated
06:54PM 40.6398 -73.7789 150° Southeast  Level Estimated
06:55PM 40.6398 -73.7789 150° Southeast  Level Estimated
06:56PM 40.6398 -73.7789 150° Southeast  Level Estimated
06:57PM 40.6398 -73.7789 150° Southeast  Level Estimated
06:58PM 40.6398 -73.7789 150° Southeast  Level Estimated
06:59PM 40.6398 -73.7789 150° Southeast  Level Estimated
07:00PM 40.6398 -73.7789 150° Southeast  Level Estimated
07:01PM 40.6398 -73.7789 150° Southeast  Level Estimated
07:02PM 40.6398 -73.7789 150° Southeast  Level Estimated
07:03PM 40.6398 -73.7789 150° Southeast  Level Estimated
07:04PM 40.6398 -73.7789 150° Southeast  Level Estimated
07:05PM 40.6398 -73.7789 150° Southeast  Level Estimated
07:06PM 40.6398 -73.7789 150° Southeast  Level Estimated
07:07PM 40.6398 -73.7789 150° Southeast  Level Estimated
07:08PM 40.6398 -73.7789 150° Southeast  Level Estimated
07:09PM 40.6398 -73.7789 150° Southeast  Level Estimated
07:10PM 40.6398 -73.7789 150° Southeast  Level Estimated
07:11PM 40.6398 -73.7789 150° Southeast  Level Estimated
07:12PM 40.6398 -73.7789 150° Southeast  Level Estimated
07:13PM 40.6398 -73.7789 150° Southeast  Level Estimated
07:14PM 40.6398 -73.7789 150° Southeast  Level Estimated
07:15PM 40.6398 -73.7789 150° Southeast  Level Estimated
07:16PM 40.6398 -73.7789 150° Southeast  Level Estimated
07:17PM 40.6398 -73.7789 150° Southeast  Level Estimated
07:18PM 40.6398 -73.7789 150° Southeast  Level Estimated
07:19PM 40.6398 -73.7789 150° Southeast  Level Estimated
07:20PM 40.6398 -73.7789 150° Southeast  Level Estimated
07:21PM 40.6398 -73.7789 150° Southeast  Level Estimated
07:22PM 40.6398 -73.7789 150° Southeast  Level Estimated
07:23PM 40.6398 -73.7789 150° Southeast  Level Estimated
07:24PM 40.6398 -73.7789 150° Southeast  Level Estimated
07:25PM 40.6398 -73.7789 150° Southeast  Level Estimated
07:26PM 40.6398 -73.7789 150° Southeast  Level Estimated
07:27PM 40.6398 -73.7789 150° Southeast  Level Estimated
07:28PM 40.6398 -73.7789 150° Southeast  Level Estimated
07:29PM 40.6398 -73.7789 150° Southeast  Level Estimated
07:30PM 40.6398 -73.7789 150° Southeast  Level Estimated
07:31PM 40.6398 -73.7789 150° Southeast  Level Estimated
07:32PM 40.6398 -73.7789 150° Southeast  Level Estimated
07:33PM 40.6398 -73.7789 150° Southeast  Level Estimated
07:34PM 40.6398 -73.7789 150° Southeast  Level Estimated
07:35PM 40.6398 -73.7789 150° Southeast  Level Estimated
07:36PM 40.6398 -73.7789 150° Southeast  Level Estimated
07:37PM 40.6398 -73.7789 150° Southeast  Level Estimated
07:38PM 40.6398 -73.7789 150° Southeast  Level Estimated
07:39PM 40.6398 -73.7789 150° Southeast  Level Estimated
07:40PM 40.6398 -73.7789 150° Southeast  Level Estimated
07:41PM 40.6398 -73.7789 150° Southeast  Level Estimated
07:42PM 40.6398 -73.7789 150° Southeast  Level Estimated
07:43PM 40.6398 -73.7789 150° Southeast  Level Estimated
07:44PM 40.6398 -73.7789 150° Southeast  Level Estimated
07:45PM 40.6398 -73.7789 150° Southeast  Level Estimated
07:46PM 40.6398 -73.7789 150° Southeast  Level Estimated
07:47PM 40.6398 -73.7789 150° Southeast  Level Estimated
07:48PM 40.6398 -73.7789 150° Southeast  Level Estimated
07:49PM 40.6398 -73.7789 150° Southeast  Level Estimated
07:50PM 40.6398 -73.7789 150° Southeast  Level Estimated
07:51PM 40.6398 -73.7789 150° Southeast  Level Estimated
07:52PM 40.6398 -73.7789 150° Southeast  Level Estimated
07:53PM 40.6398 -73.7789 150° Southeast  Level Estimated
07:54PM 40.6398 -73.7789 150° Southeast  Level Estimated
07:55PM 40.6398 -73.7789 150° Southeast  Level Estimated
07:56PM 40.6398 -73.7789 150° Southeast  Level Estimated
07:57PM 40.6398 -73.7789 150° Southeast  Level Estimated
07:58PM 40.6398 -73.7789 150° Southeast  Level Estimated
07:59PM 40.6398 -73.7789 150° Southeast  Level Estimated
08:00PM 40.6398 -73.7789 150° Southeast  Level Estimated
08:01PM 40.6398 -73.7789 150° Southeast  Level Estimated
08:02PM 40.6398 -73.7789 150° Southeast  Level Estimated
08:03PM 40.6398 -73.7789 150° Southeast  Level Estimated
08:04PM 40.6398 -73.7789 150° Southeast  Level Estimated
08:05PM 40.6398 -73.7789 150° Southeast  Level Estimated
08:06PM 40.6398 -73.7789 150° Southeast  Level Estimated
08:07PM 40.6398 -73.7789 150° Southeast  Level Estimated
08:08PM 40.6398 -73.7789 150° Southeast  Level Estimated
08:09PM 40.6398 -73.7789 150° Southeast  Level Estimated
08:10PM 40.6398 -73.7789 150° Southeast  Level Estimated
08:11PM 40.6398 -73.7789 150° Southeast  Level Estimated
08:12PM 40.6398 -73.7789 150° Southeast  Level Estimated
08:13PM 40.6398 -73.7789 150° Southeast  Level Estimated
08:14PM 40.6398 -73.7789 150° Southeast  Level Estimated
08:15PM 40.6398 -73.7789 150° Southeast  Level Estimated
08:16PM 40.6398 -73.7789 150° Southeast  Level Estimated
08:17PM 40.6398 -73.7789 150° Southeast  Level Estimated
08:18PM 40.6398 -73.7789 150° Southeast  Level Estimated
08:19PM 40.6398 -73.7789 150° Southeast  Level Estimated
08:20PM 40.6398 -73.7789 150° Southeast  Level Estimated
08:21PM 40.6398 -73.7789 150° Southeast  Level Estimated
08:22PM 40.6398 -73.7789 150° Southeast  Level Estimated
08:23PM 40.6398 -73.7789 150° Southeast  Level Estimated
08:24PM 40.6398 -73.7789 150° Southeast  Level Estimated
08:25PM 40.6398 -73.7789 150° Southeast  Level Estimated
08:26PM 40.6398 -73.7789 150° Southeast  Level Estimated
08:27PM 40.6398 -73.7789 150° Southeast  Level Estimated
08:28PM 40.6398 -73.7789 150° Southeast  Level Estimated
08:29PM 40.6398 -73.7789 150° Southeast  Level Estimated
08:30PM 40.6398 -73.7789 150° Southeast  Level Estimated
08:31PM 40.6398 -73.7789 150° Southeast  Level Estimated
08:32PM 40.6398 -73.7789 150° Southeast  Level Estimated
08:33PM 40.6398 -73.7789 150° Southeast  Level Estimated
08:34PM 40.6398 -73.7789 150° Southeast  Level Estimated
08:35PM 40.6398 -73.7789 150° Southeast  Level Estimated
08:36PM 40.6398 -73.7789 150° Southeast  Level Estimated
08:37PM 40.6398 -73.7789 150° Southeast  Level Estimated
08:38PM 40.6398 -73.7789 150° Southeast  Level Estimated
08:39PM 40.6398 -73.7789 150° Southeast  Level Estimated
08:40PM 40.6398 -73.7789 150° Southeast  Level Estimated
08:41PM 40.6398 -73.7789 150° Southeast  Level Estimated
08:42PM 40.6398 -73.7789 150° Southeast  Level Estimated
08:43PM 40.6398 -73.7789 150° Southeast  Level Estimated
08:44PM 40.6398 -73.7789 150° Southeast  Level Estimated
08:45PM 40.6398 -73.7789 150° Southeast  Level Estimated
08:46PM 40.6398 -73.7789 150° Southeast  Level Estimated
08:47PM 40.6398 -73.7789 150° Southeast  Level Estimated
08:48PM 40.6398 -73.7789 150° Southeast  Level Estimated
08:49PM 40.6398 -73.7789 150° Southeast  Level Estimated
08:50PM 40.6398 -73.7789 150° Southeast  Level Estimated
08:51PM 40.6398 -73.7789 150° Southeast  Level Estimated
08:52PM 40.6398 -73.7789 150° Southeast  Level Estimated
08:53PM 40.6398 -73.7789 150° Southeast  Level Estimated
08:54PM 40.6398 -73.7789 150° Southeast  Level Estimated
08:55PM 40.6398 -73.7789 150° Southeast  Level Estimated
08:56PM 40.6398 -73.7789 150° Southeast  Level Estimated
08:57PM 40.6398 -73.7789 150° Southeast  Level Estimated
08:58PM 40.6398 -73.7789 150° Southeast  Level Estimated
08:59PM 40.6398 -73.7789 150° Southeast  Level Estimated
09:00PM 40.6398 -73.7789 150° Southeast  Level Estimated
09:01PM 40.6398 -73.7789 150° Southeast  Level Estimated
09:02PM 40.6398 -73.7789 150° Southeast  Level Estimated
09:03PM 40.6398 -73.7789 150° Southeast  Level Estimated
09:04PM 40.6398 -73.7789 150° Southeast  Level Estimated
09:05PM 40.6398 -73.7789 150° Southeast  Level Estimated
09:06PM 40.6398 -73.7789 150° Southeast  Level Estimated
09:07PM 40.6398 -73.7789 150° Southeast  Level Estimated
09:08PM 40.6398 -73.7789 150° Southeast  Level Estimated
09:09PM 40.6398 -73.7789 150° Southeast  Level Estimated
09:10PM 40.6398 -73.7789 150° Southeast  Level Estimated
09:11PM 40.6398 -73.7789 150° Southeast  Level Estimated
09:12PM 40.6398 -73.7789 150° Southeast  Level Estimated
09:13PM 40.6398 -73.7789 150° Southeast  Level Estimated
09:14PM 40.6398 -73.7789 150° Southeast  Level Estimated
09:15PM 40.6398 -73.7789 150° Southeast  Level Estimated
09:16PM 40.6398 -73.7789 150° Southeast  Level Estimated
09:17PM 40.6398 -73.7789 150° Southeast  Level Estimated
09:18PM 40.6398 -73.7789 150° Southeast  Level Estimated
09:19PM 40.6398 -73.7789 150° Southeast  Level Estimated
09:20PM 40.6398 -73.7789 150° Southeast  Level Estimated
09:21PM 40.6398 -73.7789 150° Southeast  Level Estimated
09:22PM 40.6398 -73.7789 150° Southeast  Level Estimated
09:23PM 40.6398 -73.7789 150° Southeast  Level Estimated
09:24PM 40.6398 -73.7789 150° Southeast  Level Estimated
09:25PM 40.6398 -73.7789 150° Southeast  Level Estimated
09:26PM 40.6398 -73.7789 150° Southeast  Level Estimated
09:27PM 40.6398 -73.7789 150° Southeast  Level Estimated
09:28PM 40.6398 -73.7789 150° Southeast  Level Estimated
09:29PM 40.6398 -73.7789 150° Southeast  Level Estimated
09:30PM 40.6398 -73.7789 150° Southeast  Level Estimated
09:31PM 40.6398 -73.7789 150° Southeast  Level Estimated
09:32PM 40.6398 -73.7789 150° Southeast  Level Estimated
09:33PM 40.6398 -73.7789 150° Southeast  Level Estimated
09:34PM 40.6398 -73.7789 150° Southeast  Level Estimated
09:35PM 40.6398 -73.7789 150° Southeast  Level Estimated
09:36PM 40.6398 -73.7789 150° Southeast  Level Estimated
09:37PM 40.6398 -73.7789 150° Southeast  Level Estimated
09:38PM 40.6398 -73.7789 150° Southeast  Level Estimated
09:39PM 40.6398 -73.7789 150° Southeast  Level Estimated
09:40PM 40.6398 -73.7789 150° Southeast  Level Estimated
09:41PM 40.6398 -73.7789 150° Southeast  Level Estimated
09:42PM 40.6398 -73.7789 150° Southeast  Level Estimated
09:43PM 40.6398 -73.7789 150° Southeast  Level Estimated
09:44PM 40.6398 -73.7789 150° Southeast  Level Estimated
09:45PM 40.6398 -73.7789 150° Southeast  Level Estimated
09:46PM 40.6398 -73.7789 150° Southeast  Level Estimated
09:47PM 40.6398 -73.7789 150° Southeast  Level Estimated
09:48PM 40.6398 -73.7789 150° Southeast  Level Estimated
09:49PM 40.6398 -73.7789 150° Southeast  Level Estimated
09:50PM 40.6398 -73.7789 150° Southeast  Level Estimated
09:51PM 40.6398 -73.7789 150° Southeast  Level Estimated
09:52PM 40.6398 -73.7789 150° Southeast  Level Estimated
09:53PM 40.6398 -73.7789 150° Southeast  Level Estimated
09:54PM 40.6398 -73.7789 150° Southeast  Level Estimated
09:55PM 40.6398 -73.7789 150° Southeast  Level Estimated
09:56PM 40.6398 -73.7789 150° Southeast  Level Estimated
09:57PM 40.6398 -73.7789 150° Southeast  Level Estimated
09:58PM 40.6398 -73.7789 150° Southeast  Level Estimated
09:59PM 40.6398 -73.7789 150° Southeast  Level Estimated
10:00PM 40.6398 -73.7789 150° Southeast  Level Estimated
10:01PM 40.6398 -73.7789 150° Southeast  Level Estimated
10:02PM 40.6398 -73.7789 150° Southeast  Level Estimated
10:03PM 40.6398 -73.7789 150° Southeast  Level Estimated
10:04PM 40.6398 -73.7789 150° Southeast  Level Estimated
10:05PM 40.6398 -73.7789 150° Southeast  Level Estimated
10:06PM 40.6398 -73.7789 150° Southeast  Level Estimated
10:07PM 40.6398 -73.7789 150° Southeast  Level Estimated
10:08PM 40.6398 -73.7789 150° Southeast  Level Estimated
10:09PM 40.6398 -73.7789 150° Southeast  Level Estimated
10:10PM 40.6398 -73.7789 150° Southeast  Level Estimated
10:11PM 40.6398 -73.7789 150° Southeast  Level Estimated
10:12PM 40.6398 -73.7789 150° Southeast  Level Estimated
10:13PM 40.6398 -73.7789 150° Southeast  Level Estimated
10:14PM 40.6398 -73.7789 150° Southeast  Level Estimated
10:15PM 40.6398 -73.7789 150° Southeast  Level Estimated
10:16PM 40.6398 -73.7789 150° Southeast  Level Estimated
10:17PM 40.6398 -73.7789 150° Southeast  Level Estimated
10:18PM 40.6398 -73.7789 150° Southeast  Level Estimated
10:19PM 40.6398 -73.7789 150° Southeast  Level Estimated
10:20PM 40.6398 -73.7789 150° Southeast  Level Estimated
10:21PM 40.6398 -73.7789 150° Southeast  Level Estimated
10:22PM 40.6398 -73.7789 150° Southeast  Level Estimated
10:23PM 40.6398 -73.7789 150° Southeast  Level Estimated
10:24PM 40.6398 -73.7789 150° Southeast  Level Estimated
10:25PM 40.6398 -73.7789 150° Southeast  Level Estimated
10:26PM 40.6398 -73.7789 150° Southeast  Level Estimated
10:27PM 40.6398 -73.7789 150° Southeast  Level Estimated
10:28PM 40.6398 -73.7789 150° Southeast  Level Estimated
10:29PM 40.6398 -73.7789 150° Southeast  Level Estimated
10:30PM 40.6398 -73.7789 150° Southeast  Level Estimated
10:31PM 40.6398 -73.7789 150° Southeast  Level Estimated
10:32PM 40.6398 -73.7789 150° Southeast  Level Estimated
10:33PM 40.6398 -73.7789 150° Southeast  Level Estimated
10:34PM 40.6398 -73.7789 150° Southeast  Level Estimated
10:35PM 40.6398 -73.7789 150° Southeast  Level Estimated
10:36PM 40.6398 -73.7789 150° Southeast  Level Estimated
10:37PM 40.6398 -73.7789 150° Southeast  Level Estimated
10:38PM 40.6398 -73.7789 150° Southeast  Level Estimated
10:39PM 40.6398 -73.7789 150° Southeast  Level Estimated
10:40PM 40.6398 -73.7789 150° Southeast  Level Estimated
10:41PM 40.6398 -73.7789 150° Southeast  Level Estimated
10:42PM 40.6398 -73.7789 150° Southeast  Level Estimated
10:43PM 40.6398 -73.7789 150° Southeast  Level Estimated
10:44PM 40.6398 -73.7789 150° Southeast  Level Estimated
10:45PM 40.6398 -73.7789 150° Southeast  Level Estimated
10:46PM 40.6398 -73.7789 150° Southeast  Level Estimated
10:47PM 40.6398 -73.7789 150° Southeast  Level Estimated
10:48PM 40.6398 -73.7789 150° Southeast  Level Estimated
10:49PM 40.6398 -73.7789 150° Southeast  Level Estimated
10:50PM 40.6398 -73.7789 150° Southeast  Level Estimated
10:51PM 40.6398 -73.7789 150° Southeast  Level Estimated
10:52PM 40.6398 -73.7789 150° Southeast  Level Estimated
10:53PM 40.6398 -73.7789 150° Southeast  Level Estimated
10:54PM 40.6398 -73.7789 150° Southeast  Level Estimated
10:55PM 40.6398 -73.7789 150° Southeast  Level Estimated
10:56PM 40.6398 -73.7789 150° Southeast  Level Estimated
10:57PM 40.6398 -73.7789 150° Southeast  Level Estimated
10:58PM 40.6398 -73.7789 150° Southeast  Level Estimated
10:59PM 40.6398 -73.7789 150° Southeast  Level Estimated
11:00PM 40.6398 -73.7789 150° Southeast  Level Estimated
11:01PM 40.6398 -73.7789 150° Southeast  Level Estimated
11:02PM 40.6398 -73.7789 150° Southeast  Level Estimated
11:03PM 40.6398 -73.7789 150° Southeast  Level Estimated
11:04PM 40.6398 -73.7789 150° Southeast  Level Estimated
11:05PM 40.6398 -73.7789 150° Southeast  Level Estimated
11:06PM 40.6398 -73.7789 150° Southeast  Level Estimated
11:07PM 40.6398 -73.7789 150° Southeast  Level Estimated
11:08PM 40.6398 -73.7789 150° Southeast  Level Estimated
11:09PM 40.6398 -73.7789 150° Southeast  Level Estimated
11:10PM 40.6398 -73.7789 150° Southeast  Level Estimated
11:11PM 40.6398 -73.7789 150° Southeast  Level Estimated
11:12PM 40.6398 -73.7789 150° Southeast  Level Estimated
11:13PM 40.6398 -73.7789 150° Southeast  Level Estimated
11:14PM 40.6398 -73.7789 150° Southeast  Level Estimated
11:15PM 40.6398 -73.7789 150° Southeast  Level Estimated
11:16PM 40.6398 -73.7789 150° Southeast  Level Estimated
11:17PM 40.6398 -73.7789 150° Southeast  Level Estimated
11:18PM 40.6398 -73.7789 150° Southeast  Level Estimated
11:19PM 40.6398 -73.7789 150° Southeast  Level Estimated
11:20PM 40.6398 -73.7789 150° Southeast  Level Estimated
11:21PM 40.6398 -73.7789 150° Southeast  Level Estimated
11:22PM 40.6398 -73.7789 150° Southeast  Level Estimated
11:23PM 40.6398 -73.7789 150° Southeast  Level Estimated
11:24PM 40.6398 -73.7789 150° Southeast  Level Estimated
11:25PM 40.6398 -73.7789 150° Southeast  Level Estimated
11:26PM 40.6398 -73.7789 150° Southeast  Level Estimated
11:27PM 40.6398 -73.7789 150° Southeast  Level Estimated
11:28PM 40.6398 -73.7789 150° Southeast  Level Estimated
11:29PM 40.6398 -73.7789 150° Southeast  Level Estimated
11:30PM 40.6398 -73.7789 150° Southeast  Level Estimated
11:31PM 40.6398 -73.7789 150° Southeast  Level Estimated
11:32PM 40.6398 -73.7789 150° Southeast  Level Estimated
11:33PM 40.6398 -73.7789 150° Southeast  Level Estimated
11:34PM 40.6398 -73.7789 150° Southeast  Level Estimated
11:35PM 40.6398 -73.7789 150° Southeast  Level Estimated
11:36PM 40.6398 -73.7789 150° Southeast  Level Estimated
11:37PM 40.6398 -73.7789 150° Southeast  Level Estimated
11:38PM 40.6398 -73.7789 150° Southeast  Level Estimated
11:39PM 40.6398 -73.7789 150° Southeast  Level Estimated
11:40PM 40.6398 -73.7789 150° Southeast  Level Estimated
11:41PM 40.6398 -73.7789 150° Southeast  Level Estimated
11:42PM 40.6398 -73.7789 150° Southeast  Level Estimated
11:43PM 40.6398 -73.7789 150° Southeast  Level Estimated
11:44PM 40.6398 -73.7789 150° Southeast  Level Estimated
11:45PM 40.6398 -73.7789 150° Southeast  Level Estimated
11:46PM 40.6398 -73.7789 150° Southeast  Level Estimated
11:47PM 40.6398 -73.7789 150° Southeast  Level Estimated
11:48PM 40.6398 -73.7789 150° Southeast  Level Estimated
11:49PM 40.6398 -73.7789 150° Southeast  Level Estimated
11:50PM 40.6398 -73.7789 150° Southeast  Level Estimated
11:51PM 40.6398 -73.7789 150° Southeast  Level Estimated
11:52PM 40.6398 -73.7789 150° Southeast  Level Estimated
11:53PM 40.6398 -73.7789 150° Southeast  Level Estimated
11:54PM 40.6398 -73.7789 150° Southeast  Level Estimated
11:55PM 40.6398 -73.7789 150° Southeast  Level Estimated
11:56PM 40.6398 -73.7789 150° Southeast  Level Estimated
11:57PM 40.6398 -73.7789 150° Southeast  Level Estimated
11:58PM 40.6398 -73.7789 150° Southeast  Level Estimated
11:59PM 40.6398 -73.7789 150° Southeast  Level Estimated
12:00AM 40.6398 -73.7789 150° Southeast  Level Estimated
12:01AM 40.6398 -73.7789 150° Southeast  Level Estimated
12:02AM 40.6398 -73.7789 150° Southeast  Level Estimated
12:03AM 40.6398 -73.7789 150° Southeast  Level Estimated
12:04AM 40.6398 -73.7789 150° Southeast  Level Estimated
12:05AM 40.6398 -73.7789 150° Southeast  Level Estimated
12:06AM 40.6398 -73.7789 150° Southeast  Level Estimated
12:07AM 40.6398 -73.7789 150° Southeast  Level Estimated
12:08AM 40.6398 -73.7789 150° Southeast  Level Estimated
12:09AM 40.6398 -73.7789 150° Southeast  Level Estimated
12:10AM 40.6398 -73.7789 150° Southeast  Level Estimated
12:11AM 40.6398 -73.7789 150° Southeast  Level Estimated
12:12AM 40.6398 -73.7789 150° Southeast  Level Estimated
12:13AM 40.6398 -73.7789 150° Southeast  Level Estimated
12:14AM 40.6398 -73.7789 150° Southeast  Level Estimated
12:15AM 40.6398 -73.7789 150° Southeast  Level Estimated
12:16AM 40.6398 -73.7789 150° Southeast  Level Estimated
12:17AM 40.6398 -73.7789 150° Southeast  Level Estimated
12:18AM 40.6398 -73.7789 150° Southeast  Level Estimated
12:19AM 40.6398 -73.7789 150° Southeast  Level Estimated
12:20AM 40.6398 -73.7789 150° Southeast  Level Estimated
12:21AM 40.6398 -73.7789 150° Southeast  Level Estimated
12:22AM 40.6398 -73.7789 150° Southeast  Level Estimated
12:23AM 40.6398 -73.7789 150° Southeast  Level Estimated
12:24AM 40.6398 -73.7789 150° Southeast  Level Estimated
12:25AM 40.6398 -73.7789 150° Southeast  Level Estimated
12:26AM 40.6398 -73.7789 150° Southeast  Level Estimated
12:27AM 40.6398 -73.7789 150° Southeast  Level Estimated
12:28AM 40.6398 -73.7789 150° Southeast  Level Estimated
12:29AM 40.6398 -73.7789 150° Southeast  Level Estimated
12:30AM 40.6398 -73.7789 150° Southeast  Level Estimated
12:31AM 40.6398 -73.7789 150° Southeast  Level Estimated
12:32AM 40.6398 -73.7789 150° Southeast  Level Estimated
12:33AM 40.6398 -73.7789 150° Southeast  Level Estimated
12:34AM 40.6398 -73.7789 150° Southeast  Level Estimated
12:35AM 40.6398 -73.7789 150° Southeast  Level Estimated
12:36AM 40.6398 -73.7789 150° Southeast  Level Estimated
12:37AM 40.6398 -73.7789 150° Southeast  Level Estimated
12:38AM 40.6398 -73.7789 150° Southeast  Level Estimated
12:39AM 40.6398 -73.7789 150° Southeast  Level Estimated
12:40AM 40.6398 -73.7789 150° Southeast  Level Estimated
12:41AM 40.6398 -73.7789 150° Southeast  Level Estimated
12:42AM 40.6398 -73.7789 150° Southeast  Level Estimated
12:43AM 40.6398 -73.7789 150° Southeast  Level Estimated
12:44AM 40.6398 -73.7789 150° Southeast  Level Estimated
12:45AM 40.6398 -73.7789 150° Southeast  Level Estimated
12:46AM 40.6398 -73.7789 150° Southeast  Level Estimated
12:47AM 40.6398 -73.7789 150° Southeast  Level Estimated
12:48AM 40.6398 -73.7789 150° Southeast  Level Estimated
12:49AM 40.6398 -73.7789 150° Southeast  Level Estimated
12:50AM 40.6398 -73.7789 150° Southeast  Level Estimated
12:51AM 40.6398 -73.7789 150° Southeast  Level Estimated
12:52AM 40.6398 -73.7789 150° Southeast  Level Estimated
12:53AM 40.6398 -73.7789 150° Southeast  Level Estimated
12:54AM 40.6398 -73.7789 150° Southeast  Level Estimated
12:55AM 40.6398 -73.7789 150° Southeast  Level Estimated
12:56AM 40.6398 -73.7789 150° Southeast  Level Estimated
12:57AM 40.6398 -73.7789 150° Southeast  Level Estimated
12:58AM 40.6398 -73.7789 150° Southeast  Level Estimated
12:59AM 40.6398 -73.7789 150° Southeast  Level Estimated
01:00AM 40.6398 -73.7789 150° Southeast  Level Estimated
01:01AM 40.6398 -73.7789 150° Southeast  Level Estimated
01:02AM 40.6398 -73.7789 150° Southeast  Level Estimated
01:03AM 40.6398 -73.7789 150° Southeast  Level Estimated
01:04AM 40.6398 -73.7789 150° Southeast  Level Estimated
01:05AM 40.6398 -73.7789 150° Southeast  Level Estimated
01:06AM 40.6398 -73.7789 150° Southeast  Level Estimated
01:07AM 40.6398 -73.7789 150° Southeast  Level Estimated
01:08AM 40.6398 -73.7789 150° Southeast  Level Estimated
01:09AM 40.6398 -73.7789 150° Southeast  Level Estimated
01:10AM 40.6398 -73.7789 150° Southeast  Level Estimated
01:11AM 40.6398 -73.7789 150° Southeast  Level Estimated
01:12AM 40.6398 -73.7789 150° Southeast  Level Estimated
01:13AM 40.6398 -73.7789 150° Southeast  Level Estimated
01:14AM 40.6398 -73.7789 150° Southeast  Level Estimated
01:15AM 40.6398 -73.7789 150° Southeast  Level Estimated
01:16AM 40.6398 -73.7789 150° Southeast  Level Estimated
01:17AM 40.6398 -73.7789 150° Southeast  Level Estimated
01:18AM 40.6398 -73.7789 150° Southeast  Level Estimated
01:19AM 40.6398 -73.7789 150° Southeast  Level Estimated
01:20AM 40.6398 -73.7789 150° Southeast  Level Estimated
01:21AM 40.6398 -73.7789 150° Southeast  Level Estimated
01:22AM 40.6398 -73.7789 150° Southeast  Level Estimated
01:23AM 40.6398 -73.7789 150° Southeast  Level Estimated
01:24AM 40.6398 -73.7789 150° Southeast  Level Estimated
01:25AM 40.6398 -73.7789 150° Southeast  Level Estimated
01:26AM 40.6398 -73.7789 150° Southeast  Level Estimated
01:27AM 40.6398 -73.7789 150° Southeast  Level Estimated
01:28AM 40.6398 -73.7789 150° Southeast  Level Estimated
01:29AM 40.6398 -73.7789 150° Southeast  Level Estimated
01:30AM 40.6398 -73.7789 150° Southeast  Level Estimated
01:31AM 40.6398 -73.7789 150° Southeast  Level Estimated
01:32AM 40.6398 -73.7789 150° Southeast  Level Estimated
01:33AM 40.6398 -73.7789 150° Southeast  Level Estimated
01:34AM 40.6398 -73.7789 150° Southeast  Level Estimated
01:35AM 40.6398 -73.7789 150° Southeast  Level Estimated
01:36AM 40.6398 -73.7789 150° Southeast  Level Estimated
01:37AM 40.6398 -73.7789 150° Southeast  Level Estimated
01:38AM 40.6398 -73.7789 150° Southeast  Level Estimated
01:39AM 40.6398 -73.7789 150° Southeast  Level Estimated
01:40AM 40.6398 -73.7789 150° Southeast  Level Estimated
01:41AM 40.6398 -73.7789 150° Southeast  Level Estimated
01:42AM 40.6398 -73.7789 150° Southeast  Level Estimated
01:43AM 40.6398 -73.7789 150° Southeast  Level Estimated
01:44AM 40.6398 -73.7789 150° Southeast  Level Estimated
01:45AM 40.6398 -73.7789 150° Southeast  Level Estimated
01:46AM 40.6398 -73.7789 150° Southeast  Level Estimated
01:47AM 40.6398 -73.7789 150° Southeast  Level Estimated
01:48AM 40.6398 -73.7789 150° Southeast  Level Estimated
01:49AM 40.6398 -73.7789 150° Southeast  Level Estimated
01:50AM 40.6398 -73.7789 150° Southeast  Level Estimated
01:51AM 40.6398 -73.7789 150° Southeast  Level Estimated
01:52AM 40.6398 -73.7789 150° Southeast  Level Estimated
01:53AM 40.6398 -73.7789 150° Southeast  Level Estimated
01:54AM 40.6398 -73.7789 150° Southeast  Level Estimated
01:55AM 40.6398 -73.7789 150° Southeast  Level Estimated
01:56AM 40.6398 -73.7789 150° Southeast  Level Estimated
01:57AM 40.6398 -73.7789 150° Southeast  Level Estimated
01:58AM 40.6398 -73.7789 150° Southeast  Level Estimated
01:59AM 40.6398 -73.7789 150° Southeast  Level Estimated
02:00AM 40.6398 -73.7789 150° Southeast  Level Estimated
02:01AM 40.6398 -73.7789 150° Southeast  Level Estimated
02:02AM 40.6398 -73.7789 150° Southeast  Level Estimated
02:03AM 40.6398 -73.7789 150° Southeast  Level Estimated
02:04AM 40.6398 -73.7789 150° Southeast  Level Estimated
02:05AM 40.6398 -73.7789 150° Southeast  Level Estimated
02:06AM 40.6398 -73.7789 150° Southeast  Level Estimated
02:07AM 40.6398 -73.7789 150° Southeast  Level Estimated
02:08AM 40.6398 -73.7789 150° Southeast  Level Estimated
02:09AM 40.6398 -73.7789 150° Southeast  Level Estimated
02:10AM 40.6398 -73.7789 150° Southeast  Level Estimated
02:11AM 40.6398 -73.7789 150° Southeast  Level Estimated
02:12AM 40.6398 -73.7789 150° Southeast  Level Estimated
02:13AM 40.6398 -73.7789 150° Southeast  Level Estimated
02:14AM 40.6398 -73.7789 150° Southeast  Level Estimated
02:15AM 40.6398 -73.7789 150° Southeast  Level Estimated
02:16AM 40.6398 -73.7789 150° Southeast  Level Estimated
02:17AM 40.6398 -73.7789 150° Southeast  Level Estimated
02:18AM 40.6398 -73.7789 150° Southeast  Level Estimated
02:19AM 40.6398 -73.7789 150° Southeast  Level Estimated
02:20AM 40.6398 -73.7789 150° Southeast  Level Estimated
02:21AM 40.6398 -73.7789 150° Southeast  Level Estimated
02:22AM 40.6398 -73.7789 150° Southeast  Level Estimated
02:23AM 40.6398 -73.7789 150° Southeast  Level Estimated
02:24AM 40.6398 -73.7789 150° Southeast  Level Estimated
02:25AM 40.6398 -73.7789 150° Southeast  Level Estimated
02:26AM 40.6398 -73.7789 150° Southeast  Level Estimated
02:27AM 40.6398 -73.7789 150° Southeast  Level Estimated
02:28AM 40.6398 -73.7789 150° Southeast  Level Estimated
02:29AM 40.6398 -73.7789 150° Southeast  Level Estimated
02:30AM 40.6398 -73.7789 150° Southeast  Level Estimated
02:31AM 40.6398 -73.7789 150° Southeast  Level Estimated
02:32AM 40.6398 -73.7789 150° Southeast  Level Estimated
02:33AM 40.6398 -73.7789 150° Southeast  Level Estimated
02:34AM 40.6398 -73.7789 150° Southeast  Level Estimated
02:35AM 40.6398 -73.7789 150° Southeast  Level Estimated
02:36AM 40.6398 -73.7789 150° Southeast  Level Estimated
02:37AM 40.6398 -73.7789 150° Southeast  Level Estimated
02:38AM 40.6398 -73.7789 150° Southeast  Level Estimated
02:39AM 40.6398 -73.7789 150° Southeast  Level Estimated
02:40AM 40.6398 -73.7789 150° Southeast  Level Estimated
02:41AM 40.6398 -73.7789 150° Southeast  Level Estimated
02:42AM 40.6398 -73.7789 150° Southeast  Level Estimated
02:43AM 40.6398 -73.7789 150° Southeast  Level Estimated
02:44AM 40.6398 -73.7789 150° Southeast  Level Estimated
02:45AM 40.6398 -73.7789 150° Southeast  Level Estimated
02:46AM 40.6398 -73.7789 150° Southeast  Level Estimated
02:47AM 40.6398 -73.7789 150° Southeast  Level Estimated
02:48AM 40.6398 -73.7789 150° Southeast  Level Estimated
02:49AM 40.6398 -73.7789 150° Southeast  Level Estimated
02:50AM 40.6398 -73.7789 150° Southeast  Level Estimated
02:51AM 40.6398 -73.7789 150° Southeast  Level Estimated
02:52AM 40.6398 -73.7789 150° Southeast  Level Estimated
02:53AM 40.6398 -73.7789 150° Southeast  Level Estimated
02:54AM 40.6398 -73.7789 150° Southeast  Level Estimated
02:55AM 40.6398 -73.7789 150° Southeast  Level Estimated
02:56AM 40.6398 -73.7789 150° Southeast  Level Estimated
02:57AM 40.6398 -73.7789 150° Southeast  Level Estimated
02:58AM 40.6398 -73.7789 150° Southeast  Level Estimated
02:59AM 40.6398 -73.7789 150° Southeast  Level Estimated
03:00AM 40.6398 -73.7789 150° Southeast  Level Estimated
03:01AM 40.6398 -73.7789 150° Southeast  Level Estimated
03:02AM 40.6398 -73.7789 150° Southeast  Level Estimated
03:03AM 40.6398 -73.7789 150° Southeast  Level Estimated
03:04AM 40.6398 -73.7789 150° Southeast  Level Estimated
03:05AM 40.6398 -73.7789 150° Southeast  Level Estimated
03:06AM 40.6398 -73.7789 150° Southeast  Level Estimated
03:07AM 40.6398 -73.7789 150° Southeast  Level Estimated
03:08AM 40.6398 -73.7789 150° Southeast  Level Estimated
03:09AM 40.6398 -73.7789 150° Southeast  Level Estimated
03:10AM 40.6398 -73.7789 150° Southeast  Level Estimated
03:11AM 40.6398 -73.7789 150° Southeast  Level Estimated
03:12AM 40.6398 -73.7789 150° Southeast  Level Estimated
03:13AM 40.6398 -73.7789 150° Southeast  Level Estimated
03:14AM 40.6398 -73.7789 150° Southeast  Level Estimated
03:15AM 40.6398 -73.7789 150° Southeast  Level Estimated
03:16AM 40.6398 -73.7789 150° Southeast  Level Estimated
03:17AM 40.6398 -73.7789 150° Southeast  Level Estimated
03:18AM 40.6398 -73.7789 150° Southeast  Level Estimated
03:19AM 40.6398 -73.7789 150° Southeast  Level Estimated
03:20AM 40.6398 -73.7789 150° Southeast  Level Estimated
03:21AM 40.6398 -73.7789 150° Southeast  Level Estimated
03:22AM 40.6398 -73.7789 150° Southeast  Level Estimated
03:23AM 40.6398 -73.7789 150° Southeast  Level Estimated
03:24AM 40.6398 -73.7789 150° Southeast  Level Estimated
03:25AM 40.6398 -73.7789 150° Southeast  Level Estimated
03:26AM 40.6398 -73.7789 150° Southeast  Level Estimated
03:27AM 40.6398 -73.7789 150° Southeast  Level Estimated
03:28AM 40.6398 -73.7789 150° Southeast  Level Estimated
03:29AM 40.6398 -73.7789 150° Southeast  Level Estimated
03:30AM 40.6398 -73.7789 150° Southeast  Level Estimated
03:31AM 40.6398 -73.7789 150° Southeast  Level Estimated
03:32AM 40.6398 -73.7789 150° Southeast  Level Estimated
03:33AM 40.6398 -73.7789 150° Southeast  Level Estimated
03:34AM 40.6398 -73.7789 150° Southeast  Level Estimated
03:35AM 40.6398 -73.7789 150° Southeast  Level Estimated
03:36AM 40.6398 -73.7789 150° Southeast  Level Estimated
03:37AM 40.6398 -73.7789 150° Southeast  Level Estimated
03:38AM 40.6398 -73.7789 150° Southeast  Level Estimated
03:39AM 40.6398 -73.7789 150° Southeast  Level Estimated